d.8/12 - Jorden passerer meteorsværmen Geminiderne. Op mod 120 stjerneskud i timen, topper 14-15 december.


Vejr3>N more information Vejr3>N


Vejr3>V more information Vejr3>V


rain radar more information rain snow radar


visit our other weather sites:

Template dokumentation
og downloads

And another site


Select another period ( hide this area )

units period Custom range Directly to
metric english both
daily weekly monthly yearly
use both date-selectors for a custom range
previous day
With this date

WeatherUnderground graphs for this period ( click here )


daily summary for thursday 21 march 2019
time Temp. ( °C ) Dew pt. ( °C ) wind ( km/h ) from gust ( km/h ) pressure ( hPa ) Humid.( % ) Rainrate ( cm ) solar ( W/m2 )
high10,3 9,2 31,5 ssw ( 4745/10053 ) 38,6 1027,9 100 0,30 529.1
average7,8 7,5 11,8 ssw #430/855 19,0 1026,6 98 0,60 345 #486/855
low6,1 5,7 -   0,0 1025,8 92 -  
daily Tabular details for thursday 21 march 2019
time Temp. ( °C ) Dew pt. ( °C ) wind ( km/h ) from gust ( km/h ) pressure ( hPa ) Humid.( % ) Rainrate ( cm ) solar ( W/m2 )
00:00 6,2 5,7 8,0 sse 9,7 1027,6 97 - -
00:01 6,1 5,7 8,0 sse 11,3 1027,6 97 - -
00:02 6,1 5,7 8,0 sse 11,3 1027,6 97 - -
00:03 6,1 5,7 4,8 sse 8,0 1027,6 97 - -
00:04 6,1 5,7 4,8 south 9,7 1027,7 97 - -
00:05 6,1 5,7 4,8 south 9,7 1027,7 97 - -
00:06 6,1 5,7 11,3 south 16,1 1027,8 97 - -
00:07 6,1 5,7 8,0 south 11,3 1027,8 97 - -
00:08 6,1 5,7 9,7 south 14,5 1027,8 97 - -
00:09 6,1 5,7 4,8 south 8,0 1027,8 97 - -
00:10 6,1 5,7 4,8 south 11,3 1027,8 97 - -
00:11 6,2 5,7 4,8 south 8,0 1027,9 97 - -
00:12 6,2 5,7 4,8 south 6,4 1027,9 97 - -
00:13 6,2 5,7 4,8 south 9,7 1027,9 97 - -
00:14 6,2 5,7 9,7 ssw 17,7 1027,9 97 - -
00:15 6,2 5,7 4,8 ssw 16,1 1027,9 97 - -
00:16 6,2 5,7 3,2 ssw 8,0 1027,8 97 - -
00:17 6,2 5,7 8,0 ssw 11,3 1027,8 97 - -
00:18 6,2 5,7 8,0 ssw 11,3 1027,8 97 - -
00:19 6,2 5,7 4,8 ssw 8,0 1027,8 97 - -
00:20 6,2 5,7 4,8 ssw 9,7 1027,8 97 - -
00:21 6,2 5,7 4,8 ssw 6,4 1027,8 97 - -
00:22 6,2 5,8 9,7 ssw 14,5 1027,8 97 - -
00:23 6,2 5,7 11,3 ssw 16,1 1027,8 97 - -
00:24 6,2 5,8 8,0 ssw 11,3 1027,8 97 - -
00:25 6,2 5,8 4,8 ssw 9,7 1027,8 97 - -
00:26 6,2 5,8 4,8 south 9,7 1027,8 97 - -
00:27 6,2 5,8 4,8 ssw 9,7 1027,7 97 - -
00:28 6,2 5,8 4,8 ssw 11,3 1027,8 97 - -
00:29 6,2 5,8 8,0 south 11,3 1027,7 97 - -
00:30 6,2 5,8 4,8 south 9,7 1027,7 97 - -
00:31 6,2 5,8 4,8 south 11,3 1027,7 97 - -
00:32 6,2 5,8 3,2 ssw 6,4 1027,7 97 - -
00:33 6,2 5,8 4,8 ssw 11,3 1027,7 97 - -
00:34 6,2 5,8 9,7 ssw 14,5 1027,7 97 - -
00:35 6,2 5,8 8,0 ssw 11,3 1027,7 97 - -
00:36 6,3 5,8 8,0 ssw 12,9 1027,8 97 - -
00:37 6,2 5,8 4,8 ssw 11,3 1027,8 97 - -
00:38 6,3 5,8 4,8 ssw 9,7 1027,8 97 - -
00:39 6,3 5,8 8,0 ssw 11,3 1027,8 97 - -
00:40 6,3 5,8 4,8 ssw 6,4 1027,7 97 - -
00:41 6,3 5,8 4,8 ssw 11,3 1027,8 97 - -
00:42 6,3 5,8 8,0 ssw 9,7 1027,7 97 - -
00:43 6,3 5,8 8,0 ssw 14,5 1027,7 97 - -
00:44 6,2 5,8 8,0 ssw 9,7 1027,7 97 - -
00:45 6,3 5,8 4,8 ssw 9,7 1027,8 97 - -
00:46 6,3 5,8 4,8 ssw 9,7 1027,7 97 - -
00:47 6,3 5,8 4,8 ssw 8,0 1027,7 97 - -
00:48 6,3 5,8 3,2 sw 8,0 1027,8 97 - -
00:49 6,3 5,8 4,8 sw 8,0 1027,8 97 - -
00:50 6,3 5,8 4,8 sw 8,0 1027,8 97 - -
00:51 6,3 5,8 4,8 sw 6,4 1027,8 97 - -
00:52 6,3 5,8 8,0 sw 11,3 1027,8 97 - -
00:53 6,3 5,8 4,8 sw 8,0 1027,8 97 - -
00:54 6,3 5,8 3,2 sw 8,0 1027,8 97 - -
00:55 6,3 5,8 4,8 sw 11,3 1027,9 97 - -
00:56 6,3 5,8 4,8 sw 9,7 1027,8 97 - -
00:57 6,3 6,3 4,8 sw 11,3 1027,7 100 - -
00:58 6,3 5,8 4,8 ssw 8,0 1027,7 97 - -
00:59 6,3 6,3 4,8 ssw 16,1 1027,7 100 - -
01:00 6,3 6,3 11,3 ssw 16,1 1027,7 100 - -
01:01 6,3 6,3 4,8 ssw 11,3 1027,7 100 - -
01:02 6,3 6,3 8,0 south 9,7 1027,6 100 - -
01:03 6,3 6,3 11,3 south 16,1 1027,6 100 - -
01:04 6,3 6,3 4,8 south 9,7 1027,6 100 - -
01:05 6,3 6,3 4,8 south 9,7 1027,6 100 - -
01:06 6,3 6,3 4,8 south 9,7 1027,6 100 - -
01:07 6,3 6,3 4,8 south 9,7 1027,6 100 - -
01:08 6,3 6,3 4,8 south 8,0 1027,6 100 - -
01:09 6,3 6,3 8,0 south 16,1 1027,6 100 - -
01:10 6,4 6,4 4,8 south 8,0 1027,6 100 - -
01:11 6,3 6,3 4,8 south 9,7 1027,6 100 - -
01:12 6,3 6,3 4,8 ssw 11,3 1027,6 100 - -
01:13 6,4 6,4 1,6 ssw 3,2 1027,6 100 - -
01:14 6,4 6,4 4,8 ssw 9,7 1027,5 100 - -
01:15 6,4 6,4 8,0 ssw 16,1 1027,5 100 - -
01:16 6,4 6,4 4,8 ssw 11,3 1027,5 100 - -
01:17 6,4 6,4 4,8 ssw 6,4 1027,5 100 - -
01:18 6,4 6,4 11,3 ssw 17,7 1027,5 100 - -
01:19 6,4 6,4 4,8 ssw 11,3 1027,5 100 - -
01:20 6,4 6,4 4,8 ssw 9,7 1027,5 100 - -
01:21 6,4 6,4 9,7 ssw 12,9 1027,6 100 - -
01:22 6,4 6,4 8,0 ssw 12,9 1027,6 100 - -
01:23 6,4 6,4 8,0 ssw 11,3 1027,6 100 - -
01:24 6,4 6,4 4,8 ssw 14,5 1027,6 100 - -
01:25 6,4 6,4 8,0 ssw 12,9 1027,5 100 - -
01:26 6,4 6,4 8,0 ssw 14,5 1027,5 100 - -
01:27 6,4 6,4 8,0 ssw 17,7 1027,5 100 - -
01:28 6,4 6,4 9,7 ssw 14,5 1027,5 100 - -
01:29 6,4 6,4 11,3 ssw 16,1 1027,5 100 - -
01:30 6,4 6,4 9,7 ssw 19,3 1027,5 100 - -
01:31 6,4 6,4 8,0 south 11,3 1027,6 100 - -
01:32 6,4 6,4 9,7 south 16,1 1027,6 100 - -
01:33 6,4 6,4 9,7 south 16,1 1027,5 100 - -
01:34 6,4 6,4 9,7 south 19,3 1027,5 100 - -
01:35 6,4 6,4 4,8 ssw 14,5 1027,5 100 - -
01:36 6,4 6,4 9,7 ssw 14,5 1027,5 100 - -
01:37 6,4 6,4 8,0 ssw 11,3 1027,5 100 - -
01:38 6,4 6,4 9,7 ssw 14,5 1027,5 100 - -
01:39 6,4 6,4 4,8 ssw 11,3 1027,4 100 - -
01:40 6,4 6,4 4,8 ssw 6,4 1027,5 100 - -
01:41 6,4 6,4 11,3 ssw 17,7 1027,4 100 - -
01:42 6,4 6,4 4,8 ssw 6,4 1027,3 100 - -
01:43 6,4 6,4 8,0 ssw 12,9 1027,4 100 - -
01:44 6,4 6,4 8,0 ssw 17,7 1027,4 100 - -
01:45 6,4 6,4 4,8 ssw 8,0 1027,4 100 - -
01:46 6,4 6,4 8,0 ssw 11,3 1027,4 100 - -
01:47 6,4 6,4 4,8 ssw 14,5 1027,3 100 - -
01:48 6,4 6,4 4,8 ssw 8,0 1027,3 100 - -
01:49 6,4 6,4 4,8 ssw 12,9 1027,4 100 - -
01:50 6,4 6,4 8,0 ssw 11,3 1027,4 100 - -
01:51 6,4 6,4 8,0 ssw 16,1 1027,4 100 - -
01:52 6,4 6,4 4,8 ssw 11,3 1027,3 100 - -
01:53 6,4 6,4 9,7 ssw 14,5 1027,4 100 - -
01:54 6,4 6,4 4,8 ssw 11,3 1027,4 100 - -
01:55 6,4 6,4 8,0 ssw 16,1 1027,3 100 - -
01:56 6,4 6,4 8,0 ssw 16,1 1027,4 100 - -
01:57 6,4 6,4 8,0 ssw 11,3 1027,4 100 - -
01:58 6,4 6,4 9,7 ssw 22,5 1027,3 100 - -
01:59 6,4 6,4 9,7 ssw 17,7 1027,3 100 - -
02:00 6,4 6,4 9,7 ssw 14,5 1027,3 100 - -
02:01 6,3 6,3 9,7 south 14,5 1027,3 100 - -
02:02 6,4 6,4 8,0 ssw 17,7 1027,3 100 - -
02:03 6,3 6,3 9,7 south 16,1 1027,3 100 - -
02:04 6,3 6,3 4,8 south 14,5 1027,3 100 - -
02:05 6,3 6,3 8,0 south 16,1 1027,3 100 - -
02:06 6,3 6,3 9,7 south 17,7 1027,3 100 - -
02:07 6,3 6,3 4,8 ssw 16,1 1027,3 100 - -
02:08 6,3 6,3 11,3 south 17,7 1027,3 100 - -
02:09 6,3 6,3 9,7 ssw 14,5 1027,2 100 - -
02:10 6,3 6,3 8,0 south 16,1 1027,3 100 - -
02:11 6,3 6,3 8,0 south 19,3 1027,3 100 - -
02:12 6,3 6,3 9,7 south 14,5 1027,2 100 - -
02:13 6,3 6,3 8,0 south 16,1 1027,2 100 - -
02:14 6,3 6,3 4,8 south 11,3 1027,2 100 - -
02:15 6,3 6,3 4,8 south 9,7 1027,2 100 - -
02:16 6,3 6,3 11,3 south 16,1 1027,2 100 - -
02:17 6,3 6,3 11,3 south 19,3 1027,1 100 - -
02:18 6,3 6,3 11,3 ssw 19,3 1027,2 100 - -
02:19 6,3 6,3 11,3 south 17,7 1027,2 100 - -
02:20 6,3 6,3 11,3 ssw 16,1 1027,1 100 - -
02:21 6,3 6,3 11,3 ssw 17,7 1027,2 100 - -
02:22 6,3 6,3 16,1 ssw 20,9 1027,2 100 - -
02:23 6,3 6,3 11,3 ssw 20,9 1027,2 100 - -
02:24 6,3 6,3 9,7 ssw 20,9 1027,2 100 - -
02:25 6,3 6,3 11,3 ssw 17,7 1027,1 100 - -
02:26 6,3 6,3 11,3 ssw 19,3 1027,2 100 - -
02:27 6,3 6,3 8,0 ssw 16,1 1027,2 100 - -
02:28 6,3 6,3 4,8 ssw 11,3 1027,2 100 - -
02:29 6,3 6,3 8,0 ssw 12,9 1027,2 100 - -
02:30 6,3 6,3 8,0 ssw 16,1 1027,2 100 - -
02:31 6,3 6,3 8,0 ssw 17,7 1027,1 100 - -
02:32 6,3 6,3 3,2 ssw 9,7 1027,1 100 - -
02:33 6,3 6,3 3,2 ssw 14,5 1027,1 100 - -
02:34 6,3 6,3 4,8 ssw 14,5 1027,1 100 - -
02:35 6,3 6,3 4,8 ssw 9,7 1027,0 100 - -
02:36 6,3 6,3 4,8 ssw 9,7 1027,0 100 - -
02:37 6,3 6,3 12,9 ssw 20,9 1027,0 100 - -
02:38 6,3 6,3 8,0 ssw 16,1 1027,0 100 - -
02:39 6,3 6,3 4,8 ssw 14,5 1027,0 100 - -
02:40 6,3 6,3 4,8 ssw 9,7 1027,0 100 - -
02:41 6,3 6,3 9,7 ssw 17,7 1027,0 100 - -
02:42 6,3 6,3 8,0 ssw 9,7 1026,9 100 - -
02:43 6,4 6,4 8,0 ssw 16,1 1026,9 100 - -
02:44 6,3 6,3 8,0 ssw 14,5 1026,9 100 - -
02:45 6,3 6,3 4,8 ssw 14,5 1026,9 100 - -
02:46 6,4 6,4 11,3 ssw 17,7 1026,8 100 - -
02:47 6,3 6,3 9,7 ssw 19,3 1026,8 100 - -
02:48 6,3 6,3 11,3 ssw 19,3 1026,8 100 - -
02:49 6,4 6,4 9,7 south 17,7 1026,8 100 - -
02:50 6,4 6,4 11,3 south 17,7 1026,8 100 - -
02:51 6,4 6,4 8,0 south 19,3 1026,8 100 - -
02:52 6,4 6,4 11,3 south 17,7 1026,7 100 - -
02:53 6,4 6,4 11,3 south 17,7 1026,7 100 - -
02:54 6,4 6,4 11,3 south 17,7 1026,7 100 - -
02:55 6,4 6,4 8,0 south 12,9 1026,6 100 - -
02:56 6,4 6,4 11,3 south 19,3 1026,6 100 - -
02:57 6,4 6,4 9,7 south 14,5 1026,6 100 - -
02:58 6,4 6,4 11,3 south 19,3 1026,6 100 - -
02:59 6,4 6,4 11,3 south 17,7 1026,6 100 - -
03:00 6,4 6,4 9,7 south 20,9 1026,6 100 - -
03:01 6,4 6,4 9,7 south 17,7 1026,5 100 - -
03:02 6,4 6,4 9,7 south 16,1 1026,5 100 - -
03:03 6,4 6,4 4,8 south 11,3 1026,5 100 - -
03:04 6,4 6,4 9,7 south 20,9 1026,5 100 - -
03:05 6,4 6,4 12,9 south 20,9 1026,5 100 - -
03:06 6,4 6,4 9,7 south 16,1 1026,4 100 - -
03:07 6,4 6,4 9,7 south 14,5 1026,4 100 - -
03:08 6,4 6,4 8,0 south 16,1 1026,4 100 - -
03:09 6,4 6,4 4,8 south 11,3 1026,5 100 - -
03:10 6,4 6,4 8,0 south 11,3 1026,6 100 - -
03:11 6,4 6,4 4,8 south 11,3 1026,6 100 - -
03:12 6,4 6,4 4,8 south 9,7 1026,6 100 - -
03:13 6,4 6,4 3,2 ssw 6,4 1026,6 100 - -
03:14 6,4 6,4 4,8 south 11,3 1026,6 100 - -
03:15 6,4 6,4 4,8 ssw 11,3 1026,6 100 - -
03:16 6,4 6,4 4,8 ssw 11,3 1026,6 100 - -
03:17 6,4 6,4 3,2 ssw 8,0 1026,6 100 - -
03:18 6,4 6,4 8,0 ssw 16,1 1026,6 100 - -
03:19 6,4 6,4 9,7 south 19,3 1026,7 100 - -
03:20 6,4 6,4 8,0 south 12,9 1026,7 100 - -
03:21 6,4 6,4 4,8 ssw 14,5 1026,7 100 - -
03:22 6,5 6,5 11,3 south 17,7 1026,7 100 - -
03:23 6,5 6,5 4,8 south 9,7 1026,6 100 - -
03:24 6,5 6,5 4,8 south 9,7 1026,6 100 - -
03:25 6,5 6,5 4,8 south 9,7 1026,6 100 - -
03:26 6,5 6,5 1,6 ssw 4,8 1026,6 100 - -
03:27 6,5 6,5 3,2 ssw 6,4 1026,6 100 - -
03:28 6,5 6,5 3,2 ssw 14,5 1026,7 100 - -
03:30 6,5 6,5 3,2 ssw 16,1 1026,5 100 - -
03:31 6,5 6,5 4,8 ssw 9,7 1026,6 100 - -
03:32 6,5 6,5   calm 3,2 1026,6 100 - -
03:33 6,5 6,5 3,2 ssw 4,8 1026,6 100 - -
03:34 6,5 6,5 3,2 ssw 4,8 1026,6 100 - -
03:35 6,5 6,5 3,2 ssw 6,4 1026,5 100 - -
03:36 6,5 6,5 4,8 ssw 14,5 1026,6 100 - -
03:37 6,5 6,5 4,8 ssw 9,7 1026,6 100 - -
03:38 6,5 6,5   calm   1026,7 100 - -
03:39 6,6 6,6 1,6 sw 8,0 1026,7 100 - -
03:40 6,5 6,5 1,6 sw 4,8 1026,6 100 - -
03:41 6,5 6,5 1,6 sw 3,2 1026,7 100 - -
03:42 6,5 6,5 3,2 sw 11,3 1026,6 100 - -
03:43 6,5 6,5 8,0 sw 14,5 1026,6 100 - -
03:44 6,5 6,5 8,0 sw 16,1 1026,6 100 - -
03:45 6,6 6,6 4,8 sw 9,7 1026,6 100 - -
03:46 6,6 6,6 9,7 ssw 14,5 1026,6 100 - -
03:47 6,6 6,6 4,8 ssw 11,3 1026,6 100 - -
03:48 6,6 6,6 9,7 ssw 14,5 1026,5 100 - -
03:49 6,6 6,6 3,2 ssw 6,4 1026,5 100 - -
03:50 6,6 6,6 4,8 ssw 11,3 1026,5 100 - -
03:51 6,6 6,6 9,7 ssw 16,1 1026,5 100 - -
03:52 6,6 6,6 9,7 ssw 17,7 1026,5 100 - -
03:53 6,6 6,6 4,8 south 11,3 1026,5 100 - -
03:54 6,6 6,6 12,9 south 19,3 1026,5 100 - -
03:55 6,6 6,6 11,3 south 17,7 1026,5 100 - -
03:56 6,6 6,6 11,3 south 17,7 1026,5 100 - -
03:57 6,6 6,6 4,8 south 9,7 1026,5 100 - -
03:58 6,6 6,6 8,0 ssw 14,5 1026,5 100 - -
03:59 6,6 6,6 4,8 ssw 9,7 1026,6 100 - -
04:00 6,6 6,6 9,7 south 14,5 1026,5 100 - -
04:01 6,6 6,6 9,7 ssw 19,3 1026,5 100 - -
04:02 6,6 6,6 4,8 ssw 8,0 1026,5 100 - -
04:03 6,6 6,6 8,0 ssw 12,9 1026,5 100 - -
04:04 6,6 6,6 4,8 ssw 12,9 1026,5 100 - -
04:05 6,6 6,6 4,8 ssw 11,3 1026,4 100 - -
04:06 6,6 6,6 8,0 ssw 19,3 1026,4 100 - -
04:07 6,6 6,6 4,8 ssw 11,3 1026,4 100 - -
04:08 6,7 6,7 4,8 south 16,1 1026,4 100 - -
04:09 6,7 6,7 12,9 south 17,7 1026,3 100 - -
04:10 6,7 6,7 8,0 south 11,3 1026,4 100 - -
04:11 6,7 6,7 4,8 south 11,3 1026,3 100 - -
04:12 6,7 6,7 8,0 south 11,3 1026,4 100 - -
04:13 6,7 6,7 4,8 south 8,0 1026,4 100 - -
04:14 6,7 6,7 3,2 south 4,8 1026,4 100 - -
04:15 6,7 6,7 8,0 south 14,5 1026,4 100 - -
04:16 6,7 6,7 4,8 south 9,7 1026,3 100 - -
04:17 6,7 6,7 9,7 south 12,9 1026,4 100 - -
04:18 6,7 6,7 4,8 ssw 11,3 1026,4 100 - -
04:19 6,7 6,7 4,8 south 14,5 1026,3 100 - -
04:20 6,7 6,7 8,0 south 11,3 1026,3 100 - -
04:21 6,7 6,7 4,8 south 16,1 1026,3 100 - -
04:22 6,7 6,7 4,8 ssw 12,9 1026,3 100 - -
04:23 6,7 6,7 4,8 south 11,3 1026,3 100 - -
04:24 6,7 6,7 9,7 south 16,1 1026,3 100 - -
04:25 6,8 6,8 9,7 south 14,5 1026,3 100 - -
04:26 6,8 6,8 8,0 ssw 14,5 1026,3 100 - -
04:27 6,8 6,8 4,8 south 12,9 1026,3 100 - -
04:28 6,8 6,8 12,9 south 22,5 1026,3 100 - -
04:29 6,8 6,8 4,8 south 14,5 1026,3 100 - -
04:30 6,8 6,8 3,2 south 6,4 1026,3 100 - -
04:31 6,8 6,8 4,8 ssw 9,7 1026,2 100 - -
04:32 6,8 6,8 3,2 south 6,4 1026,2 100 - -
04:33 6,8 6,8 4,8 south 14,5 1026,2 100 - -
04:34 6,8 6,8 4,8 south 11,3 1026,2 100 - -
04:35 6,8 6,8 4,8 ssw 11,3 1026,3 100 - -
04:36 6,8 6,8 8,0 ssw 11,3 1026,2 100 - -
04:37 6,9 6,9 9,7 ssw 14,5 1026,1 100 - -
04:38 6,9 6,9 12,9 ssw 19,3 1026,2 100 - -
04:39 6,9 6,9 11,3 ssw 17,7 1026,2 100 - -
04:40 6,9 6,9 11,3 ssw 16,1 1026,2 100 - -
04:41 6,9 6,9 8,0 ssw 17,7 1026,2 100 - -
04:42 6,9 6,9 4,8 ssw 14,5 1026,3 100 - -
04:43 6,9 6,9 14,5 ssw 19,3 1026,2 100 - -
04:44 6,9 6,9 14,5 ssw 19,3 1026,1 100 - -
04:45 6,9 6,9 14,5 ssw 20,9 1026,1 100 - -
04:46 6,9 6,9 12,9 south 17,7 1026,1 100 - -
04:47 6,9 6,9 11,3 ssw 19,3 1026,2 100 - -
04:48 6,9 6,9 9,7 ssw 16,1 1026,2 100 - -
04:49 6,9 6,9 8,0 south 11,3 1026,2 100 - -
04:50 7,0 7,0 12,9 south 20,9 1026,2 100 - -
04:51 7,0 7,0 11,3 south 19,3 1026,2 100 - -
04:52 7,0 7,0 9,7 south 16,1 1026,2 100 - -
04:53 7,0 7,0 14,5 south 24,1 1026,1 100 - -
04:54 7,0 7,0 14,5 south 22,5 1026,1 100 - -
04:55 7,0 7,0 14,5 south 20,9 1026,1 100 - -
04:56 7,0 7,0 9,7 south 16,1 1026,1 100 - -
04:57 7,1 7,1 12,9 south 20,9 1026,1 100 - -
04:58 7,1 7,1 14,5 south 24,1 1026,1 100 - -
04:59 7,1 7,1 12,9 south 20,9 1026,2 100 - -
05:00 7,1 7,1 11,3 south 19,3 1026,2 100 - -
05:01 7,1 7,1 4,8 south 11,3 1026,2 100 - -
05:02 7,1 7,1 11,3 south 20,9 1026,2 100 - -
05:03 7,1 7,1 12,9 ssw 19,3 1026,2 100 - -
05:04 7,1 7,1 12,9 ssw 19,3 1026,2 100 - -
05:05 7,1 7,1 11,3 south 19,3 1026,1 100 - -
05:06 7,1 7,1 16,1 south 20,9 1026,1 100 - -
05:07 7,1 7,1 12,9 south 20,9 1026,1 100 - -
05:08 7,1 7,1 12,9 south 19,3 1026,1 100 - -
05:09 7,1 7,1 12,9 south 17,7 1026,1 100 - -
05:10 7,1 7,1 11,3 south 17,7 1026,1 100 - -
05:11 7,1 7,1 14,5 south 22,5 1026,1 100 - -
05:12 7,1 7,1 16,1 south 24,1 1026,0 100 - -
05:13 7,1 7,1 9,7 south 17,7 1025,9 100 - -
05:14 7,1 7,1 16,1 south 22,5 1025,9 100 - -
05:15 7,1 7,1 12,9 south 20,9 1025,8 100 - -
05:16 7,2 7,2 12,9 south 19,3 1025,9 100 - -
05:17 7,2 7,2 12,9 south 22,5 1025,8 100 - -
05:18 7,2 7,2 11,3 south 20,9 1025,8 100 - -
05:19 7,2 7,2 9,7 south 17,7 1025,9 100 - -
05:20 7,2 7,2 4,8 south 11,3 1025,9 100 - -
05:21 7,2 7,2 8,0 south 17,7 1025,9 100 - -
05:22 7,2 7,2 19,3 south 27,4 1025,9 100 - -
05:23 7,2 7,2 12,9 south 22,5 1025,8 100 - -
05:24 7,2 7,2 9,7 south 17,7 1025,8 100 - -
05:25 7,2 7,2 12,9 south 19,3 1025,9 100 - -
05:26 7,2 7,2 11,3 ssw 19,3 1025,9 100 - -
05:27 7,2 7,2 11,3 ssw 17,7 1026,0 100 - -
05:28 7,2 7,2 11,3 ssw 19,3 1025,9 100 - -
05:29 7,2 7,2 12,9 ssw 19,3 1025,9 100 - -
05:30 7,2 7,2 8,0 ssw 11,3 1025,9 100 - -
05:31 7,2 7,2 11,3 ssw 20,9 1025,9 100 - -
05:32 7,2 7,2 11,3 ssw 17,7 1025,8 100 - -
05:33 7,2 7,2 12,9 ssw 19,3 1025,9 100 - -
05:34 7,2 7,2 9,7 south 14,5 1025,9 100 - -
05:35 7,2 7,2 12,9 south 25,7 1025,9 100 - -
05:36 7,2 7,2 9,7 south 16,1 1025,9 100 - -
05:37 7,2 7,2 11,3 south 19,3 1025,9 100 - -
05:38 7,2 7,2 11,3 south 17,7 1025,9 100 - -
05:39 7,2 7,2 14,5 south 22,5 1025,9 100 - -
05:40 7,2 7,2 14,5 south 20,9 1025,9 100 - -
05:41 7,2 7,2 14,5 south 20,9 1026,0 100 - -
05:42 7,2 7,2 8,0 south 19,3 1025,9 100 - -
05:43 7,2 7,2 8,0 south 17,7 1025,9 100 - -
05:44 7,2 7,2 9,7 south 17,7 1026,0 100 - -
05:45 7,2 7,2 9,7 ssw 16,1 1025,9 100 - -
05:46 7,2 7,2 11,3 ssw 17,7 1026,0 100 - -
05:47 7,3 7,3 14,5 ssw 29,0 1026,0 100 - -
05:48 7,3 7,3 12,9 ssw 25,7 1025,9 100 - -
05:49 7,3 7,3 16,1 ssw 29,0 1026,0 100 - -
05:50 7,2 7,2 12,9 ssw 19,3 1026,0 100 - -
05:51 7,3 7,3 8,0 ssw 16,1 1026,0 100 - -
05:52 7,3 7,3 9,7 ssw 19,3 1026,0 100 - -
05:53 7,3 7,3 8,0 ssw 16,1 1026,0 100 - -
05:54 7,3 7,3 11,3 ssw 17,7 1026,1 100 - -
05:55 7,3 7,3 9,7 ssw 19,3 1026,0 100 - -
05:56 7,3 7,3 14,5 ssw 24,1 1026,0 100 - -
05:57 7,3 7,3 12,9 ssw 19,3 1026,0 100 - -
05:58 7,3 7,3 16,1 ssw 24,1 1026,0 100 - -
05:59 7,3 7,3 14,5 ssw 22,5 1026,0 100 - -
06:00 7,3 7,3 11,3 ssw 19,3 1025,9 100 - -
06:01 7,3 7,3 8,0 ssw 12,9 1026,0 100 - -
06:02 7,3 7,3 9,7 ssw 20,9 1026,0 100 - -
06:03 7,3 7,3 9,7 ssw 20,9 1026,1 100 - -
06:04 7,3 7,3 9,7 ssw 16,1 1026,1 100 - -
06:05 7,3 7,3 12,9 ssw 19,3 1026,0 100 - -
06:06 7,3 7,3 11,3 ssw 19,3 1026,0 100 - -
06:07 7,3 7,3 9,7 ssw 16,1 1026,1 100 - -
06:08 7,3 7,3 12,9 ssw 19,3 1026,1 100 - -
06:10 7,3 7,3 14,5 ssw 22,5 1026,0 100 - 452
06:11 7,3 7,3 16,1 ssw 22,5 1026,0 100 - 2.8
06:12 7,3 7,3 19,3 south 27,4 1026,0 100 - 4.6
06:13 7,3 7,3 9,7 south 17,7 1026,0 100 - 6.5
06:14 7,3 7,3 16,1 south 29,0 1026,0 100 - 7.4
06:15 7,3 7,3 19,3 south 29,0 1025,9 100 - 9.3
06:16 7,3 7,3 16,1 south 20,9 1025,9 100 - 11.1
06:17 7,3 7,3 19,3 south 22,5 1025,9 100 - 12.1
06:18 7,3 7,3 16,1 south 27,4 1025,9 100 - 13.9
06:19 7,3 7,3 19,3 south 24,1 1025,9 100 - 15.8
06:20 7,3 7,3 14,5 south 22,5 1025,9 100 - 16.7
06:21 7,3 7,3 19,3 south 25,7 1025,9 100 - 18.5
06:22 7,3 7,3 14,5 south 22,5 1025,9 100 - 20.4
06:23 7,3 7,3 11,3 south 17,7 1026,0 100 - 22.3
06:24 7,3 7,3 14,5 south 19,3 1025,9 100 - 23.2
06:25 7,3 7,3 19,3 south 24,1 1025,9 100 - 25
06:26 7,3 7,3 14,5 south 24,1 1026,0 100 - 26.9
06:27 7,3 7,3 19,3 south 29,0 1026,0 100 - 27.8
06:28 7,3 7,3 14,5 south 25,7 1026,0 100 - 29.7
06:29 7,3 7,3 16,1 south 24,1 1026,0 100 - 31.5
06:30 7,3 7,3 16,1 south 25,7 1025,9 100 - 33.4
06:31 7,3 7,3 19,3 south 25,7 1025,9 100 - 34.3
06:32 7,3 7,3 19,3 south 29,0 1025,9 100 - 36.1
06:33 7,3 7,3 19,3 south 24,1 1025,8 100 - 38
06:34 7,3 7,3 19,3 south 29,0 1025,9 100 - 39.8
06:35 7,3 7,3 12,9 south 17,7 1025,9 100 - 41.7
06:36 7,3 7,3 9,7 south 16,1 1025,8 100 - 42.6
06:37 7,3 7,3 19,3 south 27,4 1025,9 100 - 44.5
06:38 7,3 7,3 19,3 south 25,7 1025,8 100 - 46.3
06:39 7,3 7,3 19,3 south 24,1 1025,8 100 - 48.2
06:40 7,4 7,4 19,3 south 25,7 1025,8 100 - 50
06:41 7,4 7,4 14,5 south 22,5 1025,9 100 - 51.9
06:42 7,3 7,3 14,5 south 27,4 1025,9 100 - 52.8
06:43 7,3 7,3 14,5 south 24,1 1025,9 100 - 54.7
06:44 7,4 7,4 12,9 south 19,3 1026,0 100 - 56.5
06:45 7,4 7,4 4,8 south 14,5 1026,0 100 - 58.3
06:46 7,4 7,4 12,9 south 19,3 1026,1 100 - 60.2
06:47 7,4 7,4 11,3 south 19,3 1026,1 100 - 62
06:48 7,4 7,4 14,5 south 19,3 1026,2 100 - 63.9
06:49 7,4 7,4 19,3 south 25,7 1026,2 100 - 64.8
06:50 7,4 7,4 16,1 south 20,9 1026,2 100 - 66.7
06:51 7,4 7,4 16,1 south 20,9 1026,2 100 - 68.5
06:52 7,4 7,4 11,3 south 20,9 1026,1 100 - 70.3
06:53 7,4 7,4 14,5 south 20,9 1026,1 100 - 72.2
06:54 7,4 7,4 16,1 ssw 25,7 1026,1 100 - 74.1
06:55 7,4 7,4 11,3 south 20,9 1026,1 100 - 75.9
06:56 7,4 7,4 12,9 south 19,3 1026,1 100 - 77.7
06:57 7,4 7,4 20,9 south 29,0 1026,2 100 - 79.6
06:58 7,4 7,4 16,1 south 24,1 1026,1 100 - 81.4
06:59 7,4 7,4 20,9 south 25,7 1026,1 100 - 83.3
07:00 7,4 7,4 19,3 south 27,4 1026,2 100 - 85.2
07:01 7,4 7,4 12,9 south 20,9 1026,2 100 - 87
07:02 7,4 7,4 14,5 south 22,5 1026,2 100 - 88.9
07:03 7,4 7,4 11,3 south 20,9 1026,2 100 - 90.7
07:04 7,4 7,4 14,5 south 22,5 1026,3 100 - 92.6
07:05 7,4 7,4 14,5 south 20,9 1026,2 100 - 94.4
07:06 7,4 7,4 11,3 south 20,9 1026,3 100 - 96.3
07:07 7,4 7,4 16,1 south 24,1 1026,2 100 - 98.1
07:08 7,4 7,4 19,3 south 25,7 1026,2 100 - 100
07:10 7,5 7,5 16,1 ssw 25,7 1026,2 100 - 103.6
07:11 7,5 7,5 16,1 ssw 24,1 1026,2 100 - 105.5
07:12 7,5 7,5 9,7 ssw 17,7 1026,2 100 - 107.3
07:13 7,5 7,5 11,3 south 16,1 1026,2 100 - 109.2
07:14 7,5 7,5 14,5 south 20,9 1026,2 100 - 111
07:15 7,5 7,5 8,0 south 12,9 1026,2 100 - 112.8
07:16 7,5 7,5 11,3 south 19,3 1026,1 100 - 114.7
07:17 7,5 7,5 19,3 south 24,1 1026,2 100 - 116.5
07:18 7,6 7,6 11,3 ssw 24,1 1026,2 100 - 118.3
07:19 7,6 7,6 11,3 south 17,7 1026,2 100 - 120.2
07:20 7,6 7,6 14,5 south 24,1 1026,3 100 - 122
07:21 7,6 7,6 16,1 south 24,1 1026,2 100 - 123.9
07:22 7,6 7,6 14,5 south 25,7 1026,1 100 - 125.7
07:23 7,6 7,6 19,3 south 25,7 1026,1 100 - 127.6
07:24 7,6 7,6 19,3 south 24,1 1026,2 100 - 129.4
07:25 7,6 7,6 19,3 south 27,4 1026,1 100 - 131.2
07:26 7,6 7,6 12,9 south 29,0 1026,2 100 - 133
07:27 7,6 7,6 19,3 south 25,7 1026,1 100 - 134.9
07:28 7,6 7,6 14,5 south 24,1 1026,1 100 - 137.7
07:29 7,6 7,6 9,7 south 17,7 1026,1 100 - 139.5
07:30 7,6 7,6 19,3 south 24,1 1026,1 100 - 141.4
07:31 7,7 7,7 19,3 south 24,1 1026,1 100 - 143.1
07:32 7,7 7,7 14,5 south 20,9 1026,1 100 - 145
07:33 7,7 7,7 12,9 south 17,7 1026,1 100 - 146.8
07:34 7,7 7,7 19,3 south 30,6 1026,2 100 - 148.7
07:35 7,7 7,7 14,5 south 22,5 1026,1 100 - 150.5
07:36 7,7 7,7 19,3 south 24,1 1026,1 100 - 152.3
07:37 7,7 7,7 19,3 south 24,1 1026,1 100 - 154.1
07:38 7,7 7,7 16,1 south 24,1 1026,1 100 - 156.9
07:39 7,8 7,8 22,5 south 30,6 1026,1 100 - 158.6
07:40 7,8 7,8 16,1 south 25,7 1026,0 100 - 160.5
07:41 7,8 7,8 16,1 south 20,9 1026,1 100 - 162.3
07:42 7,8 7,8 16,1 south 22,5 1026,1 100 - 164.2
07:43 7,8 7,8 19,3 south 25,7 1026,1 100 - 166
07:44 7,8 7,8 19,3 south 29,0 1026,1 100 - 167.8
07:45 7,8 7,8 19,3 south 22,5 1026,1 100 - 169.7
07:46 7,8 7,8 20,9 south 25,7 1026,1 100 - 172.5
07:47 7,8 7,8 19,3 south 25,7 1026,1 100 - 174.2
07:48 7,8 7,8 19,3 south 29,0 1026,1 100 - 176
07:49 7,8 7,8 16,1 south 25,7 1026,2 100 - 177.9
07:50 7,8 7,8 8,0 south 20,9 1026,3 100 - 179.7
07:51 7,8 7,8 4,8 ssw 14,5 1026,3 100 - 181.6
07:52 7,8 7,8 12,9 ssw 24,1 1026,2 100 - 183.4
07:53 7,8 7,8 14,5 ssw 25,7 1026,3 100 - 186.2
07:54 7,8 7,8 11,3 ssw 19,3 1026,2 100 - 188
07:55 7,8 7,8 12,9 ssw 25,7 1026,2 100 - 189.9
07:56 7,8 7,8 8,0 ssw 14,5 1026,2 100 - 191.7
07:57 7,8 7,8 8,0 ssw 20,9 1026,3 100 - 193.5
07:58 7,8 7,8 11,3 ssw 20,9 1026,2 100 - 195.4
07:59 7,8 7,8 16,1 ssw 20,9 1026,3 100 - 198.2
08:00 7,8 7,8 14,5 ssw 20,9 1026,2 100 - 200
08:01 7,8 7,8 16,1 ssw 22,5 1026,3 100 - 201.8
08:02 7,9 7,9 11,3 ssw 22,5 1026,3 100 - 203.6
08:03 7,9 7,9 11,3 ssw 25,7 1026,3 100 - 205.4
08:04 7,9 7,9 9,7 ssw 14,5 1026,2 100 - 208.2
08:05 7,9 7,9 11,3 ssw 16,1 1026,2 100 - 210
08:06 7,9 7,9 9,7 ssw 19,3 1026,3 100 - 211.9
08:07 7,9 7,9 11,3 ssw 17,7 1026,3 100 - 213.7
08:08 7,9 7,9 8,0 ssw 14,5 1026,3 100 - 215.5
08:09 7,9 7,9 11,3 ssw 20,9 1026,4 100 - 217.4
08:10 7,9 7,9 9,7 ssw 17,7 1026,3 100 - 220.1
08:11 7,9 7,9 11,3 ssw 20,9 1026,3 100 - 222
08:12 7,9 7,9 8,0 ssw 16,1 1026,3 100 - 223.8
08:13 7,9 7,9 11,3 ssw 17,7 1026,3 100 - 225.5
08:14 7,9 7,9 11,3 ssw 20,9 1026,3 100 - 227.4
08:15 7,9 7,9 19,3 ssw 25,7 1026,3 100 - 230.3
08:16 7,9 7,9 8,0 ssw 16,1 1026,3 100 - 232.1
08:17 7,9 7,9 9,7 ssw 24,1 1026,4 100 - 233.8
08:18 7,9 7,9 9,7 ssw 16,1 1026,3 100 - 235.7
08:19 7,9 7,9 3,2 ssw 8,0 1026,4 100 - 237.5
08:20 7,9 7,9 4,8 ssw 11,3 1026,4 100 - 239.3
08:21 7,9 7,9 12,9 ssw 22,5 1026,4 100 - 242.1
08:23 7,9 7,9 11,3 ssw 17,7 1026,3 100 - 245.9
08:24 7,9 7,9 4,8 ssw 12,9 1026,4 100 - 247.6
08:25 7,9 7,9 12,9 ssw 17,7 1026,4 100 - 249.5
08:26 7,9 7,9 11,3 ssw 17,7 1026,4 100 - 251.3
08:27 7,9 7,9 11,3 ssw 19,3 1026,5 100 - 254.1
08:28 7,9 7,9 12,9 ssw 19,3 1026,5 100 - 255.9
08:29 7,9 7,9 11,3 ssw 16,1 1026,5 100 - 257.8
08:30 7,9 7,9 9,7 ssw 17,7 1026,5 100 - 259.6
08:31 7,9 7,9 11,3 ssw 17,7 1026,5 100 - 261.4
08:32 7,9 7,9 9,7 sw 16,1 1026,6 100 - 263.3
08:33 7,9 7,9 4,8 sw 14,5 1026,6 100 - 266
08:34 7,9 7,9 8,0 sw 19,3 1026,6 100 - 267.9
08:35 7,9 7,9 4,8 sw 9,7 1026,6 100 - 269.7
08:36 7,9 7,9 16,1 sw 24,1 1026,7 100 - 271.6
08:37 7,9 7,9 8,0 sw 16,1 1026,6 100 - 273.4
08:38 7,9 7,9 9,7 sw 17,7 1026,7 100 - 275.2
08:39 7,9 7,9 12,9 ssw 17,7 1026,6 100 - 278
08:40 7,9 7,9 14,5 ssw 20,9 1026,7 100 - 279.8
08:41 7,9 7,9 16,1 ssw 25,7 1026,6 100 - 281.7
08:42 7,9 7,9 4,8 ssw 17,7 1026,6 100 - 283.5
08:43 7,9 7,9 11,3 ssw 20,9 1026,7 100 - 285.4
08:44 7,9 7,9 9,7 ssw 25,7 1026,6 100 - 287.2
08:45 7,9 7,9 14,5 ssw 25,7 1026,6 100 - 289.1
08:46 7,9 7,9 4,8 ssw 14,5 1026,6 100 - 291.8
08:47 7,9 7,9 14,5 ssw 27,4 1026,6 100 - 293.7
08:48 7,9 7,9 19,3 ssw 24,1 1026,6 100 - 295.5
08:49 7,9 7,9 9,7 ssw 19,3 1026,6 100 - 297.3
08:50 8,0 8,0 8,0 ssw 16,1 1026,5 100 - 299
08:51 8,0 8,0 11,3 ssw 22,5 1026,6 100 - 300.8
08:52 8,0 8,0 9,7 ssw 16,1 1026,7 100 - 302.7
08:53 8,0 8,0 9,7 ssw 24,1 1026,6 100 - 304.5
08:54 8,0 8,0 19,3 ssw 24,1 1026,5 100 - 307.3
08:55 8,0 8,0 22,5 ssw 30,6 1026,5 100 - 309.1
08:56 8,0 8,0 16,1 ssw 22,5 1026,5 100 - 311
08:57 8,0 8,0 14,5 ssw 25,7 1026,5 100 - 312.8
08:58 8,0 8,0 14,5 ssw 22,5 1026,5 100 - 314.6
09:00 8,1 8,1 14,5 ssw 25,7 1026,5 100 - 318.1
09:01 8,1 8,1 12,9 ssw 17,7 1026,5 100 - 320
09:02 8,1 8,1 11,3 ssw 22,5 1026,5 100 - 322.7
09:03 8,1 8,1 20,9 ssw 29,0 1026,5 100 - 324.6
09:04 8,1 8,1 14,5 ssw 19,3 1026,5 100 - 326.2
09:05 8,1 8,1 16,1 ssw 27,4 1026,5 100 - 328
09:06 8,1 8,1 12,9 ssw 19,3 1026,6 100 - 329.9
09:07 8,1 8,1 8,0 ssw 20,9 1026,5 100 - 331.7
09:08 8,1 8,1 16,1 ssw 24,1 1026,5 100 - 333.6
09:09 8,1 8,1 12,9 ssw 25,7 1026,5 100 - 335.4
09:10 8,1 8,1 12,9 ssw 20,9 1026,6 100 - 337.2
09:11 8,1 8,1 12,9 ssw 24,1 1026,5 100 - 339.1
09:12 8,1 8,1 16,1 ssw 29,0 1026,5 100 - 340.9
09:13 8,1 8,1 19,3 ssw 22,5 1026,5 100 - 342.7
09:14 8,1 8,1 14,5 ssw 19,3 1026,6 100 - 344.6
09:15 8,1 8,1 22,5 ssw 29,0 1026,6 100 - 346.4
09:16 8,1 8,1 19,3 sw 24,1 1026,6 100 - 348.3
09:17 8,1 8,1 11,3 ssw 17,7 1026,7 100 - 350.1
09:18 8,1 8,1 12,9 ssw 20,9 1026,6 100 - 351.9
09:19 8,2 8,2 14,5 ssw 20,9 1026,6 100 - 353.6
09:20 8,2 8,2 12,9 ssw 24,1 1026,6 100 - 355.4
09:21 8,2 8,2 12,9 ssw 20,9 1026,6 100 - 357.2
09:22 8,2 8,2 11,3 ssw 17,7 1026,7 100 - 359.1
09:23 8,2 8,2 8,0 ssw 19,3 1026,6 100 - 360.9
09:24 8,2 8,2 14,5 ssw 20,9 1026,6 100 - 362.7
09:25 8,2 8,2 14,5 ssw 24,1 1026,5 100 - 364.6
09:26 8,2 8,2 19,3 ssw 27,4 1026,5 100 - 366.4
09:27 8,2 8,2 16,1 ssw 25,7 1026,6 100 - 368.3
09:28 8,2 8,2 12,9 ssw 17,7 1026,5 100 - 370.1
09:29 8,2 8,2 12,9 ssw 19,3 1026,6 100 - 371.7
09:30 8,2 8,2 12,9 ssw 22,5 1026,5 100 - 373.5
09:31 8,2 8,2 12,9 ssw 19,3 1026,5 100 - 375.4
09:32 8,2 8,2 11,3 ssw 22,5 1026,5 100 - 377.2
09:33 8,3 8,3 12,9 ssw 24,1 1026,5 100 - 378.8
09:34 8,3 8,3 12,9 ssw 30,6 1026,6 100 - 380.6
09:35 8,3 8,3 12,9 ssw 24,1 1026,5 100 - 381.6
09:36 8,3 8,3 12,9 ssw 24,1 1026,6 100 - 383.4
09:37 8,3 8,3 14,5 ssw 24,1 1026,5 100 - 385.2
09:38 8,3 8,3 12,9 ssw 24,1 1026,5 100 - 387.1
09:39 8,3 8,3 12,9 ssw 22,5 1026,5 100 - 388.7
09:40 8,3 8,3 11,3 ssw 22,5 1026,5 100 - 390.5
09:41 8,3 8,3 16,1 ssw 22,5 1026,4 100 - 392.3
09:42 8,3 8,3 14,5 ssw 25,7 1026,5 100 - 394.2
09:43 8,4 8,4 14,5 ssw 20,9 1026,5 100 - 394.8
09:44 8,4 8,4 9,7 ssw 19,3 1026,6 100 - 396.7
09:45 8,4 8,4 19,3 ssw 27,4 1026,5 100 - 398.5
09:46 8,4 8,4 9,7 ssw 19,3 1026,5 100 - 400.3
09:47 8,4 8,4 11,3 ssw 17,7 1026,5 100 - 401.9
09:48 8,4 8,4 12,9 ssw 22,5 1026,5 100 - 403.8
09:49 8,4 8,4 16,1 ssw 25,7 1026,5 100 - 404.7
09:50 8,4 8,4 14,5 ssw 25,7 1026,5 100 - 406.5
09:51 8,4 8,4 8,0 ssw 14,5 1026,5 100 - 408.3
09:52 8,5 8,1 8,0 ssw 14,5 1026,5 97 - 409.9
09:53 8,5 8,1 9,7 ssw 14,5 1026,5 97 - 410.8
09:54 8,5 8,1 12,9 ssw 24,1 1026,6 97 - 412.7
09:55 8,5 8,1 14,5 ssw 22,5 1026,6 97 - 414.5
09:56 8,6 8,1 12,9 ssw 22,5 1026,6 97 - 416.1
09:57 8,6 8,1 11,3 ssw 20,9 1026,5 97 - 417
09:58 8,6 8,1 11,3 ssw 16,1 1026,6 97 - 418.8
09:59 8,6 8,1 12,9 ssw 29,0 1026,5 97 - 420.6
10:00 8,6 8,1 11,3 ssw 19,3 1026,5 97 - 422.5
10:01 8,6 8,1 19,3 ssw 29,0 1026,5 97 - 424.3
10:02 8,6 8,2 12,9 ssw 20,9 1026,4 97 - 425
10:03 8,6 8,2 12,9 ssw 22,5 1026,5 97 - 426.8
10:04 8,6 8,2 19,3 ssw 29,0 1026,5 97 - 428.6
10:05 8,6 8,2 9,7 ssw 22,5 1026,5 97 - 429.5
10:06 8,7 8,2 12,9 ssw 19,3 1026,5 97 - 431.1
10:07 8,7 8,2 14,5 ssw 22,5 1026,6 97 - 432.9
10:08 8,7 8,2 9,7 ssw 20,9 1026,6 97 - 433.8
10:09 8,7 8,2 12,9 ssw 24,1 1026,6 97 - 435.7
10:10 8,7 8,2 12,9 ssw 24,1 1026,5 97 - 436.6
10:11 8,7 8,2 16,1 ssw 29,0 1026,6 97 - 438.4
10:12 8,7 8,3 12,9 ssw 20,9 1026,5 97 - 440
10:13 8,7 8,3 12,9 ssw 24,1 1026,5 97 - 440.9
10:14 8,7 8,3 12,9 sw 20,9 1026,5 97 - 442.7
10:15 8,8 8,3 8,0 sw 19,3 1026,6 97 - 443.3
10:16 8,8 8,3 20,9 sw 30,6 1026,5 97 - 445.2
10:17 8,8 8,3 19,3 sw 25,7 1026,5 97 - 446.1
10:18 8,8 8,3 20,9 sw 27,4 1026,5 97 - 447.9
10:19 8,8 8,3 16,1 sw 29,0 1026,5 97 - 448.8
10:20 8,8 8,3 9,7 sw 17,7 1026,6 97 - 450.6
10:21 8,8 8,4 14,5 sw 29,0 1026,5 97 - 451.3
10:22 8,8 8,4 4,8 sw 9,7 1026,4 97 - 453.1
10:23 8,8 8,4 9,7 sw 17,7 1026,5 97 - 454
10:24 8,9 8,4 19,3 sw 24,1 1026,5 97 - 455.6
10:25 8,9 8,4 11,3 sw 16,1 1026,5 97 - 456.5
10:26 8,9 8,5 4,8 sw 11,3 1026,5 97 - 458
10:27 8,9 8,5 8,0 sw 19,3 1026,4 97 - 458.9
10:28 9,0 8,6 16,1 ssw 27,4 1026,5 97 - 460.5
10:29 9,0 8,6 12,9 sw 19,3 1026,5 97 - 461.4
10:30 9,1 8,6 9,7 sw 17,7 1026,4 97 - 462
10:31 9,1 8,6 4,8 ssw 16,1 1026,5 97 - 463.8
10:32 9,1 8,7 11,3 sw 19,3 1026,5 97 - 464.4
10:33 9,2 8,7 14,5 ssw 24,1 1026,5 97 - 466
10:34 9,2 8,7 19,3 ssw 38,6 1026,4 97 - 466.9
10:35 9,2 8,7 14,5 ssw 30,6 1026,4 97 - 467.8
10:36 9,2 8,7 20,9 ssw 27,4 1026,4 97 - 469.6
10:37 9,2 8,6 16,1 ssw 30,6 1026,5 96 - 470.5
10:38 9,2 8,6 19,3 ssw 29,0 1026,5 96 - 471.4
10:39 9,2 8,6 16,1 ssw 25,7 1026,5 96 - 473
10:40 9,2 8,6 20,9 ssw 32,2 1026,4 96 - 473.9
10:41 9,2 8,6 16,1 ssw 32,2 1026,4 96 - 474.8
10:42 9,2 8,6 16,1 ssw 29,0 1026,5 96 - 475.7
10:43 9,2 8,6 9,7 ssw 17,7 1026,5 96 - 477.5
10:44 9,2 8,6 14,5 ssw 22,5 1026,5 96 - 478.4
10:45 9,2 8,6 14,5 ssw 24,1 1026,5 96 - 479.3
10:46 9,2 8,6 16,1 ssw 29,0 1026,5 96 - 480.2
10:47 9,2 8,6 11,3 sw 19,3 1026,5 96 - 482
10:48 9,2 8,6 20,9 ssw 30,6 1026,5 96 - 482.9
10:49 9,2 8,6 24,1 ssw 32,2 1026,5 96 - 483.8
10:50 9,2 8,6 19,3 sw 24,1 1026,6 96 - 484.8
10:51 9,3 8,5 11,3 ssw 22,5 1026,6 95 - 485.4
10:52 9,3 8,5 11,3 ssw 20,9 1026,5 95 - 486.3
10:53 9,3 8,5 14,5 ssw 22,5 1026,5 95 - 488.1
10:54 9,3 8,5 4,8 ssw 11,3 1026,5 95 - 489
10:55 9,3 8,5 16,1 ssw 25,7 1026,5 95 - 489.9
10:56 9,3 8,5 12,9 ssw 22,5 1026,5 95 - 490.8
10:57 9,3 8,5 9,7 ssw 22,5 1026,5 95 - 491.7
10:58 9,3 8,5 16,1 ssw 20,9 1026,4 95 - 492.6
10:59 9,3 8,5 19,3 ssw 25,7 1026,4 95 - 493.5
11:00 9,3 8,6 12,9 ssw 24,1 1026,4 95 - 494.1
11:01 9,3 8,6 12,9 ssw 19,3 1026,4 95 - 495
11:02 9,3 8,6 12,9 ssw 29,0 1026,5 95 - 495.9
11:03 9,4 8,6 11,3 ssw 22,5 1026,5 95 - 497.5
11:04 9,4 8,6 19,3 ssw 29,0 1026,5 95 - 497.5
11:05 9,4 8,7 19,3 ssw 29,0 1026,4 95 - 498.1
11:06 9,4 8,7 14,5 ssw 25,7 1026,4 95 - 499
11:07 9,4 8,7 19,3 ssw 27,4 1026,5 95 - 499.9
11:08 9,4 8,7 9,7 sw 19,3 1026,5 95 - 500.8
11:09 9,5 8,7 16,1 sw 24,1 1026,4 95 - 501.4
11:10 9,5 8,7 14,5 sw 24,1 1026,4 95 - 502.3
11:11 9,5 8,7 19,3 sw 24,1 1026,4 95 - 503.2
11:12 9,6 8,8 14,5 sw 20,9 1026,4 95 - 503.8
11:13 9,6 8,8 11,3 sw 17,7 1026,4 95 - 504.7
11:14 9,6 8,8 14,5 sw 24,1 1026,4 95 - 505.6
11:15 9,6 8,8 14,5 sw 29,0 1026,5 95 - 506.2
11:16 9,6 8,8 4,8 sw 12,9 1026,4 95 - 506.2
11:17 9,7 8,9 12,9 sw 22,5 1026,5 95 - 506.8
11:18 9,7 8,7 16,1 ssw 27,4 1026,5 94 - 507.7
11:19 9,7 8,7 20,9 ssw 30,6 1026,4 94 - 508.6
11:20 9,7 8,7 16,1 sw 25,7 1026,5 94 - 509.5
11:21 9,7 8,7 12,9 ssw 19,3 1026,5 94 - 509.5
11:22 9,7 8,7 11,3 ssw 17,7 1026,5 94 - 510.4
11:23 9,7 8,7 11,3 ssw 17,7 1026,5 94 - 511.3
11:24 9,7 8,7 4,8 ssw 16,1 1026,5 94 - 512.2
11:25 9,7 8,7 4,8 ssw 12,9 1026,4 94 - 512.2
11:26 9,7 8,8 11,3 ssw 16,1 1026,4 94 - 512.8
11:27 9,7 8,8 14,5 ssw 24,1 1026,4 94 - 513.7
11:28 9,7 8,8 19,3 ssw 29,0 1026,4 94 - 513.7
11:29 9,7 8,8 22,5 sw 29,0 1026,4 94 - 514.6
11:30 9,7 8,8 14,5 ssw 22,5 1026,5 94 - 515.5
11:31 9,7 8,8 16,1 ssw 29,0 1026,6 94 - 515.5
11:32 9,7 8,8 12,9 ssw 24,1 1026,5 94 - 516.4
11:33 9,7 8,8 11,3 ssw 22,5 1026,5 94 - 516.4
11:34 9,7 8,7 19,3 ssw 35,4 1026,6 93 - 517.3
11:35 9,7 8,7 19,3 ssw 22,5 1026,6 93 - 518.2
11:36 9,7 8,7 19,3 ssw 33,8 1026,6 93 - 518.2
11:37 9,7 8,7 19,3 sw 29,0 1026,5 93 - 519.1
11:38 9,7 8,6 14,5 ssw 27,4 1026,6 93 - 519.4
11:39 9,7 8,6 19,3 ssw 25,7 1026,6 93 - 520.3
11:40 9,7 8,6 14,5 sw 24,1 1026,6 93 - 520.3
11:41 9,7 8,6 14,5 sw 22,5 1026,5 93 - 521.2
11:42 9,7 8,6 19,3 sw 25,7 1026,5 93 - 521.2
11:43 9,7 8,6 11,3 sw 20,9 1026,5 93 - 522.1
11:44 9,7 8,6 14,5 sw 20,9 1026,6 93 - 522.1
11:45 9,7 8,6 12,9 sw 17,7 1026,6 93 - 523
11:46 9,6 8,6 9,7 sw 25,7 1026,6 93 - 523.4
11:47 9,6 8,6 19,3 sw 30,6 1026,6 93 - 523.4
11:48 9,6 8,5 14,5 sw 22,5 1026,6 93 - 524.6
11:49 9,6 8,6 12,9 sw 24,1 1026,6 93 - 524.3
11:50 9,6 8,5 19,3 sw 22,5 1026,5 93 - 524.6
11:51 9,6 8,5 14,5 sw 20,9 1026,5 93 - 525.5
11:52 9,6 8,5 11,3 sw 20,9 1026,6 93 - 525.5
11:53 9,6 8,5 19,3 sw 22,5 1026,5 93 - 525.5
11:54 9,6 8,5 9,7 sw 16,1 1026,6 93 - 526.4
11:55 9,6 8,5 9,7 sw 16,1 1026,6 93 - 526.4
11:56 9,6 8,5 12,9 sw 24,1 1026,5 93 - 526.4
11:57 9,6 8,5 14,5 sw 24,1 1026,6 93 - 527.3
11:58 9,6 8,5 14,5 sw 20,9 1026,5 93 - 527.3
11:59 9,6 8,5 14,5 sw 20,9 1026,6 93 - 527.3
12:00 9,6 8,6 8,0 sw 14,5 1026,6 93 - 527.9
12:01 9,6 8,5 14,5 sw 25,7 1026,6 93 - 528.2
12:02 9,6 8,5 16,1 ssw 25,7 1026,6 93 - 528.2
12:03 9,6 8,5 14,5 ssw 22,5 1026,6 93 - 528.2
12:04 9,6 8,5 11,3 ssw 17,7 1026,5 93 - 528.2
12:05 9,6 8,7 19,3 ssw 30,6 1026,5 94 - 527.9
12:06 9,6 8,7 22,5 ssw 30,6 1026,6 94 - 528.8
12:07 9,6 8,6 20,9 ssw 30,6 1026,6 93 - 528.8
12:08 9,6 8,6 9,7 ssw 17,7 1026,6 93 - 528.8
12:09 9,6 8,6 16,1 ssw 27,4 1026,7 93 - 528.8
12:10 9,6 8,5 12,9 sw 17,7 1026,7 93 - 529.1
12:11 9,6 8,6 8,0 ssw 14,5 1026,6 93 - 528.8
12:12 9,6 8,6 8,0 sw 16,1 1026,7 93 - 528.8
12:13 9,6 8,7 8,0 sw 14,5 1026,7 94 - 528.8
12:14 9,6 8,7 11,3 sw 27,4 1026,7 94 - 528.8
12:15 9,6 8,6 16,1 sw 24,1 1026,7 93 - 528.8
12:16 9,6 8,6 14,5 sw 29,0 1026,6 93 - 528.8
12:17 9,6 8,6 16,1 sw 22,5 1026,6 93 - 528.8
12:18 9,6 8,6 12,9 sw 25,7 1026,6 93 - 528.8
12:19 9,6 8,6 19,3 sw 24,1 1026,5 93 - 528.8
12:20 9,6 8,6 16,1 ssw 22,5 1026,6 93 - 528.8
12:21 9,6 8,6 12,9 ssw 19,3 1026,5 93 - 528.8
12:22 9,6 8,6 14,5 ssw 33,8 1026,5 93 - 528.8
12:23 9,7 8,6 12,9 ssw 19,3 1026,5 93 - 527.5
12:24 9,7 8,7 11,3 ssw 16,1 1026,5 94 - 527.5
12:25 9,7 8,7 19,3 ssw 22,5 1026,6 94 - 527.5
12:26 9,7 8,8 16,1 ssw 25,7 1026,5 94 - 527.2
12:27 9,7 8,8 9,7 ssw 25,7 1026,6 94 - 527.2
12:28 9,7 8,7 19,3 ssw 25,7 1026,5 93 - 527.2
12:29 9,7 8,7 12,9 ssw 19,3 1026,6 93 - 526.3
12:30 9,8 8,7 14,5 ssw 29,0 1026,6 93 - 526
12:31 9,8 8,7 16,1 sw 24,1 1026,6 93 - 526
12:32 9,8 8,7 14,5 sw 30,6 1026,6 93 - 526
12:33 9,8 8,7 4,8 sw 12,9 1026,6 93 - 525.1
12:34 9,8 8,7 4,8 sw 9,7 1026,7 93 - 525.1
12:35 9,8 8,8 16,1 sw 24,1 1026,7 93 - 524.8
12:36 9,8 8,8 9,7 sw 27,4 1026,7 93 - 524.8
12:37 9,8 8,8 12,9 sw 22,5 1026,7 93 - 523.9
12:38 9,8 8,8 9,7 sw 20,9 1026,7 93 - 523.9
12:39 9,8 8,8 14,5 sw 20,9 1026,6 93 - 523
12:40 9,8 8,8 4,8 sw 16,1 1026,6 93 - 523
12:41 9,8 8,8 11,3 sw 16,1 1026,6 93 - 523
12:42 9,8 8,8 12,9 sw 17,7 1026,6 93 - 522.1
12:43 9,8 8,8 4,8 sw 17,7 1026,7 93 - 522.1
12:44 9,8 8,8 16,1 sw 19,3 1026,7 93 - 521.2
12:45 9,8 8,8 12,9 ssw 19,3 1026,7 93 - 521.2
12:46 9,9 8,8 11,3 ssw 22,5 1026,8 93 - 520.8
12:47 9,9 8,8 16,1 ssw 25,7 1026,7 93 - 519.9
12:48 9,8 8,8 12,9 ssw 22,5 1026,7 93 - 520.3
12:49 9,8 8,8 19,3 sw 25,7 1026,7 93 - 519.4
12:50 9,8 8,8 16,1 sw 24,1 1026,7 93 - 519.4
12:51 9,8 8,8 22,5 sw 35,4 1026,7 93 - 518.5
12:52 9,8 8,8 16,1 sw 22,5 1026,7 93 - 518.5
12:53 9,8 8,7 20,9 sw 25,7 1026,7 93 - 517.9
12:54 9,8 8,7 14,5 sw 25,7 1026,7 93 - 517
12:55 9,8 8,7 16,1 sw 22,5 1026,7 93 - 517
12:56 9,8 8,7 9,7 sw 19,3 1026,7 93 - 516.1
12:57 9,8 8,7 8,0 sw 17,7 1026,7 93 - 516.1
12:58 9,8 8,7 19,3 sw 24,1 1026,7 93 - 515.2
12:59 9,8 8,7 14,5 sw 24,1 1026,7 93 - 514.3
13:00 9,8 8,7 19,3 sw 29,0 1026,7 93 - 514.3
13:01 9,7 8,7 19,3 sw 30,6 1026,7 93 - 513.7
13:02 9,7 8,7 19,3 sw 27,4 1026,8 93 - 513.7
13:03 9,7 8,7 9,7 sw 16,1 1026,8 93 - 512.8
13:04 9,7 8,7 14,5 sw 20,9 1026,8 93 - 511.9
13:05 9,7 8,7 9,7 sw 17,7 1026,8 93 - 511.9
13:06 9,7 8,7 16,1 sw 29,0 1026,9 93 - 511
13:07 9,7 8,6 19,3 sw 27,4 1026,9 93 - 510.4
13:08 9,7 8,6 9,7 sw 16,1 1026,9 93 - 509.5
13:09 9,7 8,6 19,3 sw 27,4 1026,9 93 - 508.6
13:10 9,7 8,6 16,1 sw 29,0 1026,9 93 - 508.6
13:11 9,7 8,6 16,1 sw 30,6 1026,9 93 - 507.7
13:12 9,7 8,6 19,3 sw 30,6 1026,9 93 - 506.8
13:13 9,7 8,6 12,9 sw 19,3 1026,9 93 - 505.9
13:14 9,7 8,6 20,9 sw 30,6 1026,9 93 - 505
13:15 9,7 8,6 12,9 sw 25,7 1026,9 93 - 505
13:16 9,6 8,6 19,3 sw 30,6 1026,9 93 - 504.4
13:17 9,6 8,6 16,1 sw 22,5 1026,9 93 - 503.5
13:18 9,6 8,7 19,3 sw 27,4 1026,9 94 - 502.6
13:19 9,6 8,7 24,1 sw 35,4 1026,9 94 - 501.7
13:20 9,6 8,7 20,9 sw 32,2 1026,9 94 - 500.8
13:21 9,6 8,7 12,9 sw 20,9 1026,9 94 - 499.9
13:22 9,6 8,7 22,5 sw 32,2 1026,9 94 - 498.9
13:23 9,6 8,7 19,3 sw 25,7 1026,9 94 - 498
13:24 9,6 8,7 20,9 sw 25,7 1026,8 94 - 497.1
13:25 9,6 8,7 14,5 sw 24,1 1026,8 94 - 496.2
13:26 9,7 8,7 19,3 sw 29,0 1026,7 94 - 495
13:27 9,7 8,7 19,3 sw 29,0 1026,7 94 - 494.1
13:28 9,7 8,7 16,1 sw 24,1 1026,6 94 - 493.2
13:29 9,7 8,7 19,3 sw 25,7 1026,6 94 - 492.3
13:30 9,7 8,7 19,3 sw 29,0 1026,6 94 - 491.4
13:31 9,7 8,8 12,9 sw 24,1 1026,5 94 - 490.2
13:32 9,7 8,8 19,3 sw 25,7 1026,6 94 - 489.3
13:33 9,8 8,8 19,3 sw 27,4 1026,5 94 - 488.1
13:34 9,8 8,8 11,3 sw 19,3 1026,5 94 - 487.2
13:35 9,8 8,8 4,8 sw 9,7 1026,5 94 - 486.3
13:36 9,8 8,8 9,7 sw 17,7 1026,5 94 - 484.5
13:37 9,8 8,9 12,9 sw 24,1 1026,5 94 - 483.3
13:38 9,8 8,9 12,9 sw 25,7 1026,4 94 - 482.4
13:39 9,8 8,9 8,0 sw 11,3 1026,5 94 - 481.5
13:40 9,9 8,9 9,7 sw 20,9 1026,4 94 - 480.3
13:41 9,9 8,8 19,3 sw 24,1 1026,4 93 - 479.4
13:42 9,9 8,9 16,1 ssw 25,7 1026,4 93 - 477.3
13:43 9,9 9,0 11,3 sw 20,9 1026,5 94 - 476.4
13:44 9,9 9,0 11,3 ssw 22,5 1026,4 94 - 475.5
13:45 10,0 9,1 16,1 sw 27,4 1026,5 94 - 474.3
13:46 10,0 9,1 19,3 ssw 20,9 1026,5 94 - 472.5
13:47 10,1 9,0 14,5 ssw 22,5 1026,5 93 - 471.3
13:48 10,1 9,0 14,5 ssw 24,1 1026,4 93 - 470.4
13:49 10,1 9,0 14,5 ssw 22,5 1026,5 93 - 469.5
13:50 10,1 9,1 12,9 ssw 20,9 1026,4 93 - 467.4
13:51 10,1 9,1 16,1 ssw 27,4 1026,3 93 - 466.5
13:52 10,2 9,1 14,5 ssw 22,5 1026,3 93 - 465.3
13:53 10,2 9,1 9,7 ssw 17,7 1026,3 93 - 463.5
13:54 10,2 9,1 16,1 ssw 27,4 1026,3 93 - 462.6
13:55 10,2 9,2 9,7 ssw 30,6 1026,3 93 - 461.5
13:56 10,2 9,2 12,9 ssw 24,1 1026,3 93 - 459.7
13:57 10,3 9,2 11,3 sw 19,3 1026,3 93 - 458.5
13:58 10,3 9,2 11,3 sw 16,1 1026,2 93 - 456.7
16:49 9,9 8,7 24,1 wsw 21,2 1026,2 92 - 139
16:54 9,9 8,8 16,1 sw 27,4 1026,2 93 - 146.9
16:59 9,8 8,8 29,6 wsw 19,3 1026,3 93 - 76
17:04 9,8 8,8 24,1 ssw 13,5 1026,3 93 - 86
17:09 9,8 8,8 25,9 wsw 10,9 1026,2 93 - 42
17:14 9,8 8,8 18,5 south 9,8 1026,2 93 - 39
17:19 9,7 8,7 24,1 sw 12,1 1026,2 93 - 58
17:24 9,7 8,7 24,1 sw 11,9 1026,2 93 - 74
17:29 9,8 8,7 31,5 south 15,9 1026,1 93 - 53
17:34 9,7 8,7 20,9 south 13,0 1026,1 93 - 30
17:39 9,7 8,6 18,5 sw 12,1 1026,2 93 - 30
17:44 9,6 8,6 27,8 ssw 14,5 1026,1 93 - 44
17:49 9,6 8,5 25,9 sw 7,1 1026,2 93 0,30 37
17:54 9,6 8,5 19,3 sw 10,1 1026,4 93 0,30 26
17:59 9,5 8,4 19,3 wsw 10,1 1026,4 93 0,30 21
18:04 9,4 8,4 24,1 ssw 12,4 1026,4 93 0,30 18
18:09 9,4 8,4 18,5 sw 15,3 1026,5 94 0,30 14
18:14 9,3 8,4 22,2 south 13,7 1026,4 94 0,30 9
18:19 9,3 8,4 18,5 ssw 11,3 1026,4 94 0,30 7
18:24 9,3 8,4 18,5 sw 6,6 1026,6 94 0,30 5
18:29 9,3 8,4 18,5 sw 12,9 1026,5 94 0,30 -
daily summary for thursday 21 march 2019
time Temp. ( °C ) Dew pt. ( °C ) wind ( km/h ) from gust ( km/h ) pressure ( hPa ) Humid.( % ) Rainrate ( cm ) solar ( W/m2 )
high10,3 9,2 31,5 ssw ( 4745/10053 ) 38,6 1027,9 100 0,30 529.1
average7,8 7,5 11,8 ssw #430/855 19,0 1026,6 98 0,60 345 #486/855
low6,1 5,7 -   0,0 1025,8 92 -  
daily Tabular details for thursday 21 march 2019
time Temp. ( °C ) Dew pt. ( °C ) wind ( km/h ) from gust ( km/h ) pressure ( hPa ) Humid.( % ) Rainrate ( cm ) solar ( W/m2 )
00:00 6,2 5,7 8,0 sse 9,7 1027,6 97 - -
00:01 6,1 5,7 8,0 sse 11,3 1027,6 97 - -
00:02 6,1 5,7 8,0 sse 11,3 1027,6 97 - -
00:03 6,1 5,7 4,8 sse 8,0 1027,6 97 - -
00:04 6,1 5,7 4,8 south 9,7 1027,7 97 - -
00:05 6,1 5,7 4,8 south 9,7 1027,7 97 - -
00:06 6,1 5,7 11,3 south 16,1 1027,8 97 - -
00:07 6,1 5,7 8,0 south 11,3 1027,8 97 - -
00:08 6,1 5,7 9,7 south 14,5 1027,8 97 - -
00:09 6,1 5,7 4,8 south 8,0 1027,8 97 - -
00:10 6,1 5,7 4,8 south 11,3 1027,8 97 - -
00:11 6,2 5,7 4,8 south 8,0 1027,9 97 - -
00:12 6,2 5,7 4,8 south 6,4 1027,9 97 - -
00:13 6,2 5,7 4,8 south 9,7 1027,9 97 - -
00:14 6,2 5,7 9,7 ssw 17,7 1027,9 97 - -
00:15 6,2 5,7 4,8 ssw 16,1 1027,9 97 - -
00:16 6,2 5,7 3,2 ssw 8,0 1027,8 97 - -
00:17 6,2 5,7 8,0 ssw 11,3 1027,8 97 - -
00:18 6,2 5,7 8,0 ssw 11,3 1027,8 97 - -
00:19 6,2 5,7 4,8 ssw 8,0 1027,8 97 - -
00:20 6,2 5,7 4,8 ssw 9,7 1027,8 97 - -
00:21 6,2 5,7 4,8 ssw 6,4 1027,8 97 - -
00:22 6,2 5,8 9,7 ssw 14,5 1027,8 97 - -
00:23 6,2 5,7 11,3 ssw 16,1 1027,8 97 - -
00:24 6,2 5,8 8,0 ssw 11,3 1027,8 97 - -
00:25 6,2 5,8 4,8 ssw 9,7 1027,8 97 - -
00:26 6,2 5,8 4,8 south 9,7 1027,8 97 - -
00:27 6,2 5,8 4,8 ssw 9,7 1027,7 97 - -
00:28 6,2 5,8 4,8 ssw 11,3 1027,8 97 - -
00:29 6,2 5,8 8,0 south 11,3 1027,7 97 - -
00:30 6,2 5,8 4,8 south 9,7 1027,7 97 - -
00:31 6,2 5,8 4,8 south 11,3 1027,7 97 - -
00:32 6,2 5,8 3,2 ssw 6,4 1027,7 97 - -
00:33 6,2 5,8 4,8 ssw 11,3 1027,7 97 - -
00:34 6,2 5,8 9,7 ssw 14,5 1027,7 97 - -
00:35 6,2 5,8 8,0 ssw 11,3 1027,7 97 - -
00:36 6,3 5,8 8,0 ssw 12,9 1027,8 97 - -
00:37 6,2 5,8 4,8 ssw 11,3 1027,8 97 - -
00:38 6,3 5,8 4,8 ssw 9,7 1027,8 97 - -
00:39 6,3 5,8 8,0 ssw 11,3 1027,8 97 - -
00:40 6,3 5,8 4,8 ssw 6,4 1027,7 97 - -
00:41 6,3 5,8 4,8 ssw 11,3 1027,8 97 - -
00:42 6,3 5,8 8,0 ssw 9,7 1027,7 97 - -
00:43 6,3 5,8 8,0 ssw 14,5 1027,7 97 - -
00:44 6,2 5,8 8,0 ssw 9,7 1027,7 97 - -
00:45 6,3 5,8 4,8 ssw 9,7 1027,8 97 - -
00:46 6,3 5,8 4,8 ssw 9,7 1027,7 97 - -
00:47 6,3 5,8 4,8 ssw 8,0 1027,7 97 - -
00:48 6,3 5,8 3,2 sw 8,0 1027,8 97 - -
00:49 6,3 5,8 4,8 sw 8,0 1027,8 97 - -
00:50 6,3 5,8 4,8 sw 8,0 1027,8 97 - -
00:51 6,3 5,8 4,8 sw 6,4 1027,8 97 - -
00:52 6,3 5,8 8,0 sw 11,3 1027,8 97 - -
00:53 6,3 5,8 4,8 sw 8,0 1027,8 97 - -
00:54 6,3 5,8 3,2 sw 8,0 1027,8 97 - -
00:55 6,3 5,8 4,8 sw 11,3 1027,9 97 - -
00:56 6,3 5,8 4,8 sw 9,7 1027,8 97 - -
00:57 6,3 6,3 4,8 sw 11,3 1027,7 100 - -
00:58 6,3 5,8 4,8 ssw 8,0 1027,7 97 - -
00:59 6,3 6,3 4,8 ssw 16,1 1027,7 100 - -
01:00 6,3 6,3 11,3 ssw 16,1 1027,7 100 - -
01:01 6,3 6,3 4,8 ssw 11,3 1027,7 100 - -
01:02 6,3 6,3 8,0 south 9,7 1027,6 100 - -
01:03 6,3 6,3 11,3 south 16,1 1027,6 100 - -
01:04 6,3 6,3 4,8 south 9,7 1027,6 100 - -
01:05 6,3 6,3 4,8 south 9,7 1027,6 100 - -
01:06 6,3 6,3 4,8 south 9,7 1027,6 100 - -
01:07 6,3 6,3 4,8 south 9,7 1027,6 100 - -
01:08 6,3 6,3 4,8 south 8,0 1027,6 100 - -
01:09 6,3 6,3 8,0 south 16,1 1027,6 100 - -
01:10 6,4 6,4 4,8 south 8,0 1027,6 100 - -
01:11 6,3 6,3 4,8 south 9,7 1027,6 100 - -
01:12 6,3 6,3 4,8 ssw 11,3 1027,6 100 - -
01:13 6,4 6,4 1,6 ssw 3,2 1027,6 100 - -
01:14 6,4 6,4 4,8 ssw 9,7 1027,5 100 - -
01:15 6,4 6,4 8,0 ssw 16,1 1027,5 100 - -
01:16 6,4 6,4 4,8 ssw 11,3 1027,5 100 - -
01:17 6,4 6,4 4,8 ssw 6,4 1027,5 100 - -
01:18 6,4 6,4 11,3 ssw 17,7 1027,5 100 - -
01:19 6,4 6,4 4,8 ssw 11,3 1027,5 100 - -
01:20 6,4 6,4 4,8 ssw 9,7 1027,5 100 - -
01:21 6,4 6,4 9,7 ssw 12,9 1027,6 100 - -
01:22 6,4 6,4 8,0 ssw 12,9 1027,6 100 - -
01:23 6,4 6,4 8,0 ssw 11,3 1027,6 100 - -
01:24 6,4 6,4 4,8 ssw 14,5 1027,6 100 - -
01:25 6,4 6,4 8,0 ssw 12,9 1027,5 100 - -
01:26 6,4 6,4 8,0 ssw 14,5 1027,5 100 - -
01:27 6,4 6,4 8,0 ssw 17,7 1027,5 100 - -
01:28 6,4 6,4 9,7 ssw 14,5 1027,5 100 - -
01:29 6,4 6,4 11,3 ssw 16,1 1027,5 100 - -
01:30 6,4 6,4 9,7 ssw 19,3 1027,5 100 - -
01:31 6,4 6,4 8,0 south 11,3 1027,6 100 - -
01:32 6,4 6,4 9,7 south 16,1 1027,6 100 - -
01:33 6,4 6,4 9,7 south 16,1 1027,5 100 - -
01:34 6,4 6,4 9,7 south 19,3 1027,5 100 - -
01:35 6,4 6,4 4,8 ssw 14,5 1027,5 100 - -
01:36 6,4 6,4 9,7 ssw 14,5 1027,5 100 - -
01:37 6,4 6,4 8,0 ssw 11,3 1027,5 100 - -
01:38 6,4 6,4 9,7 ssw 14,5 1027,5 100 - -
01:39 6,4 6,4 4,8 ssw 11,3 1027,4 100 - -
01:40 6,4 6,4 4,8 ssw 6,4 1027,5 100 - -
01:41 6,4 6,4 11,3 ssw 17,7 1027,4 100 - -
01:42 6,4 6,4 4,8 ssw 6,4 1027,3 100 - -
01:43 6,4 6,4 8,0 ssw 12,9 1027,4 100 - -
01:44 6,4 6,4 8,0 ssw 17,7 1027,4 100 - -
01:45 6,4 6,4 4,8 ssw 8,0 1027,4 100 - -
01:46 6,4 6,4 8,0 ssw 11,3 1027,4 100 - -
01:47 6,4 6,4 4,8 ssw 14,5 1027,3 100 - -
01:48 6,4 6,4 4,8 ssw 8,0 1027,3 100 - -
01:49 6,4 6,4 4,8 ssw 12,9 1027,4 100 - -
01:50 6,4 6,4 8,0 ssw 11,3 1027,4 100 - -
01:51 6,4 6,4 8,0 ssw 16,1 1027,4 100 - -
01:52 6,4 6,4 4,8 ssw 11,3 1027,3 100 - -
01:53 6,4 6,4 9,7 ssw 14,5 1027,4 100 - -
01:54 6,4 6,4 4,8 ssw 11,3 1027,4 100 - -
01:55 6,4 6,4 8,0 ssw 16,1 1027,3 100 - -
01:56 6,4 6,4 8,0 ssw 16,1 1027,4 100 - -
01:57 6,4 6,4 8,0 ssw 11,3 1027,4 100 - -
01:58 6,4 6,4 9,7 ssw 22,5 1027,3 100 - -
01:59 6,4 6,4 9,7 ssw 17,7 1027,3 100 - -
02:00 6,4 6,4 9,7 ssw 14,5 1027,3 100 - -
02:01 6,3 6,3 9,7 south 14,5 1027,3 100 - -
02:02 6,4 6,4 8,0 ssw 17,7 1027,3 100 - -
02:03 6,3 6,3 9,7 south 16,1 1027,3 100 - -
02:04 6,3 6,3 4,8 south 14,5 1027,3 100 - -
02:05 6,3 6,3 8,0 south 16,1 1027,3 100 - -
02:06 6,3 6,3 9,7 south 17,7 1027,3 100 - -
02:07 6,3 6,3 4,8 ssw 16,1 1027,3 100 - -
02:08 6,3 6,3 11,3 south 17,7 1027,3 100 - -
02:09 6,3 6,3 9,7 ssw 14,5 1027,2 100 - -
02:10 6,3 6,3 8,0 south 16,1 1027,3 100 - -
02:11 6,3 6,3 8,0 south 19,3 1027,3 100 - -
02:12 6,3 6,3 9,7 south 14,5 1027,2 100 - -
02:13 6,3 6,3 8,0 south 16,1 1027,2 100 - -
02:14 6,3 6,3 4,8 south 11,3 1027,2 100 - -
02:15 6,3 6,3 4,8 south 9,7 1027,2 100 - -
02:16 6,3 6,3 11,3 south 16,1 1027,2 100 - -
02:17 6,3 6,3 11,3 south 19,3 1027,1 100 - -
02:18 6,3 6,3 11,3 ssw 19,3 1027,2 100 - -
02:19 6,3 6,3 11,3 south 17,7 1027,2 100 - -
02:20 6,3 6,3 11,3 ssw 16,1 1027,1 100 - -
02:21 6,3 6,3 11,3 ssw 17,7 1027,2 100 - -
02:22 6,3 6,3 16,1 ssw 20,9 1027,2 100 - -
02:23 6,3 6,3 11,3 ssw 20,9 1027,2 100 - -
02:24 6,3 6,3 9,7 ssw 20,9 1027,2 100 - -
02:25 6,3 6,3 11,3 ssw 17,7 1027,1 100 - -
02:26 6,3 6,3 11,3 ssw 19,3 1027,2 100 - -
02:27 6,3 6,3 8,0 ssw 16,1 1027,2 100 - -
02:28 6,3 6,3 4,8 ssw 11,3 1027,2 100 - -
02:29 6,3 6,3 8,0 ssw 12,9 1027,2 100 - -
02:30 6,3 6,3 8,0 ssw 16,1 1027,2 100 - -
02:31 6,3 6,3 8,0 ssw 17,7 1027,1 100 - -
02:32 6,3 6,3 3,2 ssw 9,7 1027,1 100 - -
02:33 6,3 6,3 3,2 ssw 14,5 1027,1 100 - -
02:34 6,3 6,3 4,8 ssw 14,5 1027,1 100 - -
02:35 6,3 6,3 4,8 ssw 9,7 1027,0 100 - -
02:36 6,3 6,3 4,8 ssw 9,7 1027,0 100 - -
02:37 6,3 6,3 12,9 ssw 20,9 1027,0 100 - -
02:38 6,3 6,3 8,0 ssw 16,1 1027,0 100 - -
02:39 6,3 6,3 4,8 ssw 14,5 1027,0 100 - -
02:40 6,3 6,3 4,8 ssw 9,7 1027,0 100 - -
02:41 6,3 6,3 9,7 ssw 17,7 1027,0 100 - -
02:42 6,3 6,3 8,0 ssw 9,7 1026,9 100 - -
02:43 6,4 6,4 8,0 ssw 16,1 1026,9 100 - -
02:44 6,3 6,3 8,0 ssw 14,5 1026,9 100 - -
02:45 6,3 6,3 4,8 ssw 14,5 1026,9 100 - -
02:46 6,4 6,4 11,3 ssw 17,7 1026,8 100 - -
02:47 6,3 6,3 9,7 ssw 19,3 1026,8 100 - -
02:48 6,3 6,3 11,3 ssw 19,3 1026,8 100 - -
02:49 6,4 6,4 9,7 south 17,7 1026,8 100 - -
02:50 6,4 6,4 11,3 south 17,7 1026,8 100 - -
02:51 6,4 6,4 8,0 south 19,3 1026,8 100 - -
02:52 6,4 6,4 11,3 south 17,7 1026,7 100 - -
02:53 6,4 6,4 11,3 south 17,7 1026,7 100 - -
02:54 6,4 6,4 11,3 south 17,7 1026,7 100 - -
02:55 6,4 6,4 8,0 south 12,9 1026,6 100 - -
02:56 6,4 6,4 11,3 south 19,3 1026,6 100 - -
02:57 6,4 6,4 9,7 south 14,5 1026,6 100 - -
02:58 6,4 6,4 11,3 south 19,3 1026,6 100 - -
02:59 6,4 6,4 11,3 south 17,7 1026,6 100 - -
03:00 6,4 6,4 9,7 south 20,9 1026,6 100 - -
03:01 6,4 6,4 9,7 south 17,7 1026,5 100 - -
03:02 6,4 6,4 9,7 south 16,1 1026,5 100 - -
03:03 6,4 6,4 4,8 south 11,3 1026,5 100 - -
03:04 6,4 6,4 9,7 south 20,9 1026,5 100 - -
03:05 6,4 6,4 12,9 south 20,9 1026,5 100 - -
03:06 6,4 6,4 9,7 south 16,1 1026,4 100 - -
03:07 6,4 6,4 9,7 south 14,5 1026,4 100 - -
03:08 6,4 6,4 8,0 south 16,1 1026,4 100 - -
03:09 6,4 6,4 4,8 south 11,3 1026,5 100 - -
03:10 6,4 6,4 8,0 south 11,3 1026,6 100 - -
03:11 6,4 6,4 4,8 south 11,3 1026,6 100 - -
03:12 6,4 6,4 4,8 south 9,7 1026,6 100 - -
03:13 6,4 6,4 3,2 ssw 6,4 1026,6 100 - -
03:14 6,4 6,4 4,8 south 11,3 1026,6 100 - -
03:15 6,4 6,4 4,8 ssw 11,3 1026,6 100 - -
03:16 6,4 6,4 4,8 ssw 11,3 1026,6 100 - -
03:17 6,4 6,4 3,2 ssw 8,0 1026,6 100 - -
03:18 6,4 6,4 8,0 ssw 16,1 1026,6 100 - -
03:19 6,4 6,4 9,7 south 19,3 1026,7 100 - -
03:20 6,4 6,4 8,0 south 12,9 1026,7 100 - -
03:21 6,4 6,4 4,8 ssw 14,5 1026,7 100 - -
03:22 6,5 6,5 11,3 south 17,7 1026,7 100 - -
03:23 6,5 6,5 4,8 south 9,7 1026,6 100 - -
03:24 6,5 6,5 4,8 south 9,7 1026,6 100 - -
03:25 6,5 6,5 4,8 south 9,7 1026,6 100 - -
03:26 6,5 6,5 1,6 ssw 4,8 1026,6 100 - -
03:27 6,5 6,5 3,2 ssw 6,4 1026,6 100 - -
03:28 6,5 6,5 3,2 ssw 14,5 1026,7 100 - -
03:30 6,5 6,5 3,2 ssw 16,1 1026,5 100 - -
03:31 6,5 6,5 4,8 ssw 9,7 1026,6 100 - -
03:32 6,5 6,5   calm 3,2 1026,6 100 - -
03:33 6,5 6,5 3,2 ssw 4,8 1026,6 100 - -
03:34 6,5 6,5 3,2 ssw 4,8 1026,6 100 - -
03:35 6,5 6,5 3,2 ssw 6,4 1026,5 100 - -
03:36 6,5 6,5 4,8 ssw 14,5 1026,6 100 - -
03:37 6,5 6,5 4,8 ssw 9,7 1026,6 100 - -
03:38 6,5 6,5   calm   1026,7 100 - -
03:39 6,6 6,6 1,6 sw 8,0 1026,7 100 - -
03:40 6,5 6,5 1,6 sw 4,8 1026,6 100 - -
03:41 6,5 6,5 1,6 sw 3,2 1026,7 100 - -
03:42 6,5 6,5 3,2 sw 11,3 1026,6 100 - -
03:43 6,5 6,5 8,0 sw 14,5 1026,6 100 - -
03:44 6,5 6,5 8,0 sw 16,1 1026,6 100 - -
03:45 6,6 6,6 4,8 sw 9,7 1026,6 100 - -
03:46 6,6 6,6 9,7 ssw 14,5 1026,6 100 - -
03:47 6,6 6,6 4,8 ssw 11,3 1026,6 100 - -
03:48 6,6 6,6 9,7 ssw 14,5 1026,5 100 - -
03:49 6,6 6,6 3,2 ssw 6,4 1026,5 100 - -
03:50 6,6 6,6 4,8 ssw 11,3 1026,5 100 - -
03:51 6,6 6,6 9,7 ssw 16,1 1026,5 100 - -
03:52 6,6 6,6 9,7 ssw 17,7 1026,5 100 - -
03:53 6,6 6,6 4,8 south 11,3 1026,5 100 - -
03:54 6,6 6,6 12,9 south 19,3 1026,5 100 - -
03:55 6,6 6,6 11,3 south 17,7 1026,5 100 - -
03:56 6,6 6,6 11,3 south 17,7 1026,5 100 - -
03:57 6,6 6,6 4,8 south 9,7 1026,5 100 - -
03:58 6,6 6,6 8,0 ssw 14,5 1026,5 100 - -
03:59 6,6 6,6 4,8 ssw 9,7 1026,6 100 - -
04:00 6,6 6,6 9,7 south 14,5 1026,5 100 - -
04:01 6,6 6,6 9,7 ssw 19,3 1026,5 100 - -
04:02 6,6 6,6 4,8 ssw 8,0 1026,5 100 - -
04:03 6,6 6,6 8,0 ssw 12,9 1026,5 100 - -
04:04 6,6 6,6 4,8 ssw 12,9 1026,5 100 - -
04:05 6,6 6,6 4,8 ssw 11,3 1026,4 100 - -
04:06 6,6 6,6 8,0 ssw 19,3 1026,4 100 - -
04:07 6,6 6,6 4,8 ssw 11,3 1026,4 100 - -
04:08 6,7 6,7 4,8 south 16,1 1026,4 100 - -
04:09 6,7 6,7 12,9 south 17,7 1026,3 100 - -
04:10 6,7 6,7 8,0 south 11,3 1026,4 100 - -
04:11 6,7 6,7 4,8 south 11,3 1026,3 100 - -
04:12 6,7 6,7 8,0 south 11,3 1026,4 100 - -
04:13 6,7 6,7 4,8 south 8,0 1026,4 100 - -
04:14 6,7 6,7 3,2 south 4,8 1026,4 100 - -
04:15 6,7 6,7 8,0 south 14,5 1026,4 100 - -
04:16 6,7 6,7 4,8 south 9,7 1026,3 100 - -
04:17 6,7 6,7 9,7 south 12,9 1026,4 100 - -
04:18 6,7 6,7 4,8 ssw 11,3 1026,4 100 - -
04:19 6,7 6,7 4,8 south 14,5 1026,3 100 - -
04:20 6,7 6,7 8,0 south 11,3 1026,3 100 - -
04:21 6,7 6,7 4,8 south 16,1 1026,3 100 - -
04:22 6,7 6,7 4,8 ssw 12,9 1026,3 100 - -
04:23 6,7 6,7 4,8 south 11,3 1026,3 100 - -
04:24 6,7 6,7 9,7 south 16,1 1026,3 100 - -
04:25 6,8 6,8 9,7 south 14,5 1026,3 100 - -
04:26 6,8 6,8 8,0 ssw 14,5 1026,3 100 - -
04:27 6,8 6,8 4,8 south 12,9 1026,3 100 - -
04:28 6,8 6,8 12,9 south 22,5 1026,3 100 - -
04:29 6,8 6,8 4,8 south 14,5 1026,3 100 - -
04:30 6,8 6,8 3,2 south 6,4 1026,3 100 - -
04:31 6,8 6,8 4,8 ssw 9,7 1026,2 100 - -
04:32 6,8 6,8 3,2 south 6,4 1026,2 100 - -
04:33 6,8 6,8 4,8 south 14,5 1026,2 100 - -
04:34 6,8 6,8 4,8 south 11,3 1026,2 100 - -
04:35 6,8 6,8 4,8 ssw 11,3 1026,3 100 - -
04:36 6,8 6,8 8,0 ssw 11,3 1026,2 100 - -
04:37 6,9 6,9 9,7 ssw 14,5 1026,1 100 - -
04:38 6,9 6,9 12,9 ssw 19,3 1026,2 100 - -
04:39 6,9 6,9 11,3 ssw 17,7 1026,2 100 - -
04:40 6,9 6,9 11,3 ssw 16,1 1026,2 100 - -
04:41 6,9 6,9 8,0 ssw 17,7 1026,2 100 - -
04:42 6,9 6,9 4,8 ssw 14,5 1026,3 100 - -
04:43 6,9 6,9 14,5 ssw 19,3 1026,2 100 - -
04:44 6,9 6,9 14,5 ssw 19,3 1026,1 100 - -
04:45 6,9 6,9 14,5 ssw 20,9 1026,1 100 - -
04:46 6,9 6,9 12,9 south 17,7 1026,1 100 - -
04:47 6,9 6,9 11,3 ssw 19,3 1026,2 100 - -
04:48 6,9 6,9 9,7 ssw 16,1 1026,2 100 - -
04:49 6,9 6,9 8,0 south 11,3 1026,2 100 - -
04:50 7,0 7,0 12,9 south 20,9 1026,2 100 - -
04:51 7,0 7,0 11,3 south 19,3 1026,2 100 - -
04:52 7,0 7,0 9,7 south 16,1 1026,2 100 - -
04:53 7,0 7,0 14,5 south 24,1 1026,1 100 - -
04:54 7,0 7,0 14,5 south 22,5 1026,1 100 - -
04:55 7,0 7,0 14,5 south 20,9 1026,1 100 - -
04:56 7,0 7,0 9,7 south 16,1 1026,1 100 - -
04:57 7,1 7,1 12,9 south 20,9 1026,1 100 - -
04:58 7,1 7,1 14,5 south 24,1 1026,1 100 - -
04:59 7,1 7,1 12,9 south 20,9 1026,2 100 - -
05:00 7,1 7,1 11,3 south 19,3 1026,2 100 - -
05:01 7,1 7,1 4,8 south 11,3 1026,2 100 - -
05:02 7,1 7,1 11,3 south 20,9 1026,2 100 - -
05:03 7,1 7,1 12,9 ssw 19,3 1026,2 100 - -
05:04 7,1 7,1 12,9 ssw 19,3 1026,2 100 - -
05:05 7,1 7,1 11,3 south 19,3 1026,1 100 - -
05:06 7,1 7,1 16,1 south 20,9 1026,1 100 - -
05:07 7,1 7,1 12,9 south 20,9 1026,1 100 - -
05:08 7,1 7,1 12,9 south 19,3 1026,1 100 - -
05:09 7,1 7,1 12,9 south 17,7 1026,1 100 - -
05:10 7,1 7,1 11,3 south 17,7 1026,1 100 - -
05:11 7,1 7,1 14,5 south 22,5 1026,1 100 - -
05:12 7,1 7,1 16,1 south 24,1 1026,0 100 - -
05:13 7,1 7,1 9,7 south 17,7 1025,9 100 - -
05:14 7,1 7,1 16,1 south 22,5 1025,9 100 - -
05:15 7,1 7,1 12,9 south 20,9 1025,8 100 - -
05:16 7,2 7,2 12,9 south 19,3 1025,9 100 - -
05:17 7,2 7,2 12,9 south 22,5 1025,8 100 - -
05:18 7,2 7,2 11,3 south 20,9 1025,8 100 - -
05:19 7,2 7,2 9,7 south 17,7 1025,9 100 - -
05:20 7,2 7,2 4,8 south 11,3 1025,9 100 - -
05:21 7,2 7,2 8,0 south 17,7 1025,9 100 - -
05:22 7,2 7,2 19,3 south 27,4 1025,9 100 - -
05:23 7,2 7,2 12,9 south 22,5 1025,8 100 - -
05:24 7,2 7,2 9,7 south 17,7 1025,8 100 - -
05:25 7,2 7,2 12,9 south 19,3 1025,9 100 - -
05:26 7,2 7,2 11,3 ssw 19,3 1025,9 100 - -
05:27 7,2 7,2 11,3 ssw 17,7 1026,0 100 - -
05:28 7,2 7,2 11,3 ssw 19,3 1025,9 100 - -
05:29 7,2 7,2 12,9 ssw 19,3 1025,9 100 - -
05:30 7,2 7,2 8,0 ssw 11,3 1025,9 100 - -
05:31 7,2 7,2 11,3 ssw 20,9 1025,9 100 - -
05:32 7,2 7,2 11,3 ssw 17,7 1025,8 100 - -
05:33 7,2 7,2 12,9 ssw 19,3 1025,9 100 - -
05:34 7,2 7,2 9,7 south 14,5 1025,9 100 - -
05:35 7,2 7,2 12,9 south 25,7 1025,9 100 - -
05:36 7,2 7,2 9,7 south 16,1 1025,9 100 - -
05:37 7,2 7,2 11,3 south 19,3 1025,9 100 - -
05:38 7,2 7,2 11,3 south 17,7 1025,9 100 - -
05:39 7,2 7,2 14,5 south 22,5 1025,9 100 - -
05:40 7,2 7,2 14,5 south 20,9 1025,9 100 - -
05:41 7,2 7,2 14,5 south 20,9 1026,0 100 - -
05:42 7,2 7,2 8,0 south 19,3 1025,9 100 - -
05:43 7,2 7,2 8,0 south 17,7 1025,9 100 - -
05:44 7,2 7,2 9,7 south 17,7 1026,0 100 - -
05:45 7,2 7,2 9,7 ssw 16,1 1025,9 100 - -
05:46 7,2 7,2 11,3 ssw 17,7 1026,0 100 - -
05:47 7,3 7,3 14,5 ssw 29,0 1026,0 100 - -
05:48 7,3 7,3 12,9 ssw 25,7 1025,9 100 - -
05:49 7,3 7,3 16,1 ssw 29,0 1026,0 100 - -
05:50 7,2 7,2 12,9 ssw 19,3 1026,0 100 - -
05:51 7,3 7,3 8,0 ssw 16,1 1026,0 100 - -
05:52 7,3 7,3 9,7 ssw 19,3 1026,0 100 - -
05:53 7,3 7,3 8,0 ssw 16,1 1026,0 100 - -
05:54 7,3 7,3 11,3 ssw 17,7 1026,1 100 - -
05:55 7,3 7,3 9,7 ssw 19,3 1026,0 100 - -
05:56 7,3 7,3 14,5 ssw 24,1 1026,0 100 - -
05:57 7,3 7,3 12,9 ssw 19,3 1026,0 100 - -
05:58 7,3 7,3 16,1 ssw 24,1 1026,0 100 - -
05:59 7,3 7,3 14,5 ssw 22,5 1026,0 100 - -
06:00 7,3 7,3 11,3 ssw 19,3 1025,9 100 - -
06:01 7,3 7,3 8,0 ssw 12,9 1026,0 100 - -
06:02 7,3 7,3 9,7 ssw 20,9 1026,0 100 - -
06:03 7,3 7,3 9,7 ssw 20,9 1026,1 100 - -
06:04 7,3 7,3 9,7 ssw 16,1 1026,1 100 - -
06:05 7,3 7,3 12,9 ssw 19,3 1026,0 100 - -
06:06 7,3 7,3 11,3 ssw 19,3 1026,0 100 - -
06:07 7,3 7,3 9,7 ssw 16,1 1026,1 100 - -
06:08 7,3 7,3 12,9 ssw 19,3 1026,1 100 - -
06:10 7,3 7,3 14,5 ssw 22,5 1026,0 100 - 452
06:11 7,3 7,3 16,1 ssw 22,5 1026,0 100 - 2.8
06:12 7,3 7,3 19,3 south 27,4 1026,0 100 - 4.6
06:13 7,3 7,3 9,7 south 17,7 1026,0 100 - 6.5
06:14 7,3 7,3 16,1 south 29,0 1026,0 100 - 7.4
06:15 7,3 7,3 19,3 south 29,0 1025,9 100 - 9.3
06:16 7,3 7,3 16,1 south 20,9 1025,9 100 - 11.1
06:17 7,3 7,3 19,3 south 22,5 1025,9 100 - 12.1
06:18 7,3 7,3 16,1 south 27,4 1025,9 100 - 13.9
06:19 7,3 7,3 19,3 south 24,1 1025,9 100 - 15.8
06:20 7,3 7,3 14,5 south 22,5 1025,9 100 - 16.7
06:21 7,3 7,3 19,3 south 25,7 1025,9 100 - 18.5
06:22 7,3 7,3 14,5 south 22,5 1025,9 100 - 20.4
06:23 7,3 7,3 11,3 south 17,7 1026,0 100 - 22.3
06:24 7,3 7,3 14,5 south 19,3 1025,9 100 - 23.2
06:25 7,3 7,3 19,3 south 24,1 1025,9 100 - 25
06:26 7,3 7,3 14,5 south 24,1 1026,0 100 - 26.9
06:27 7,3 7,3 19,3 south 29,0 1026,0 100 - 27.8
06:28 7,3 7,3 14,5 south 25,7 1026,0 100 - 29.7
06:29 7,3 7,3 16,1 south 24,1 1026,0 100 - 31.5
06:30 7,3 7,3 16,1 south 25,7 1025,9 100 - 33.4
06:31 7,3 7,3 19,3 south 25,7 1025,9 100 - 34.3
06:32 7,3 7,3 19,3 south 29,0 1025,9 100 - 36.1
06:33 7,3 7,3 19,3 south 24,1 1025,8 100 - 38
06:34 7,3 7,3 19,3 south 29,0 1025,9 100 - 39.8
06:35 7,3 7,3 12,9 south 17,7 1025,9 100 - 41.7
06:36 7,3 7,3 9,7 south 16,1 1025,8 100 - 42.6
06:37 7,3 7,3 19,3 south 27,4 1025,9 100 - 44.5
06:38 7,3 7,3 19,3 south 25,7 1025,8 100 - 46.3
06:39 7,3 7,3 19,3 south 24,1 1025,8 100 - 48.2
06:40 7,4 7,4 19,3 south 25,7 1025,8 100 - 50
06:41 7,4 7,4 14,5 south 22,5 1025,9 100 - 51.9
06:42 7,3 7,3 14,5 south 27,4 1025,9 100 - 52.8
06:43 7,3 7,3 14,5 south 24,1 1025,9 100 - 54.7
06:44 7,4 7,4 12,9 south 19,3 1026,0 100 - 56.5
06:45 7,4 7,4 4,8 south 14,5 1026,0 100 - 58.3
06:46 7,4 7,4 12,9 south 19,3 1026,1 100 - 60.2
06:47 7,4 7,4 11,3 south 19,3 1026,1 100 - 62
06:48 7,4 7,4 14,5 south 19,3 1026,2 100 - 63.9
06:49 7,4 7,4 19,3 south 25,7 1026,2 100 - 64.8
06:50 7,4 7,4 16,1 south 20,9 1026,2 100 - 66.7
06:51 7,4 7,4 16,1 south 20,9 1026,2 100 - 68.5
06:52 7,4 7,4 11,3 south 20,9 1026,1 100 - 70.3
06:53 7,4 7,4 14,5 south 20,9 1026,1 100 - 72.2
06:54 7,4 7,4 16,1 ssw 25,7 1026,1 100 - 74.1
06:55 7,4 7,4 11,3 south 20,9 1026,1 100 - 75.9
06:56 7,4 7,4 12,9 south 19,3 1026,1 100 - 77.7
06:57 7,4 7,4 20,9 south 29,0 1026,2 100 - 79.6
06:58 7,4 7,4 16,1 south 24,1 1026,1 100 - 81.4
06:59 7,4 7,4 20,9 south 25,7 1026,1 100 - 83.3
07:00 7,4 7,4 19,3 south 27,4 1026,2 100 - 85.2
07:01 7,4 7,4 12,9 south 20,9 1026,2 100 - 87
07:02 7,4 7,4 14,5 south 22,5 1026,2 100 - 88.9
07:03 7,4 7,4 11,3 south 20,9 1026,2 100 - 90.7
07:04 7,4 7,4 14,5 south 22,5 1026,3 100 - 92.6
07:05 7,4 7,4 14,5 south 20,9 1026,2 100 - 94.4
07:06 7,4 7,4 11,3 south 20,9 1026,3 100 - 96.3
07:07 7,4 7,4 16,1 south 24,1 1026,2 100 - 98.1
07:08 7,4 7,4 19,3 south 25,7 1026,2 100 - 100
07:10 7,5 7,5 16,1 ssw 25,7 1026,2 100 - 103.6
07:11 7,5 7,5 16,1 ssw 24,1 1026,2 100 - 105.5
07:12 7,5 7,5 9,7 ssw 17,7 1026,2 100 - 107.3
07:13 7,5 7,5 11,3 south 16,1 1026,2 100 - 109.2
07:14 7,5 7,5 14,5 south 20,9 1026,2 100 - 111
07:15 7,5 7,5 8,0 south 12,9 1026,2 100 - 112.8
07:16 7,5 7,5 11,3 south 19,3 1026,1 100 - 114.7
07:17 7,5 7,5 19,3 south 24,1 1026,2 100 - 116.5
07:18 7,6 7,6 11,3 ssw 24,1 1026,2 100 - 118.3
07:19 7,6 7,6 11,3 south 17,7 1026,2 100 - 120.2
07:20 7,6 7,6 14,5 south 24,1 1026,3 100 - 122
07:21 7,6 7,6 16,1 south 24,1 1026,2 100 - 123.9
07:22 7,6 7,6 14,5 south 25,7 1026,1 100 - 125.7
07:23 7,6 7,6 19,3 south 25,7 1026,1 100 - 127.6
07:24 7,6 7,6 19,3 south 24,1 1026,2 100 - 129.4
07:25 7,6 7,6 19,3 south 27,4 1026,1 100 - 131.2
07:26 7,6 7,6 12,9 south 29,0 1026,2 100 - 133
07:27 7,6 7,6 19,3 south 25,7 1026,1 100 - 134.9
07:28 7,6 7,6 14,5 south 24,1 1026,1 100 - 137.7
07:29 7,6 7,6 9,7 south 17,7 1026,1 100 - 139.5
07:30 7,6 7,6 19,3 south 24,1 1026,1 100 - 141.4
07:31 7,7 7,7 19,3 south 24,1 1026,1 100 - 143.1
07:32 7,7 7,7 14,5 south 20,9 1026,1 100 - 145
07:33 7,7 7,7 12,9 south 17,7 1026,1 100 - 146.8
07:34 7,7 7,7 19,3 south 30,6 1026,2 100 - 148.7
07:35 7,7 7,7 14,5 south 22,5 1026,1 100 - 150.5
07:36 7,7 7,7 19,3 south 24,1 1026,1 100 - 152.3
07:37 7,7 7,7 19,3 south 24,1 1026,1 100 - 154.1
07:38 7,7 7,7 16,1 south 24,1 1026,1 100 - 156.9
07:39 7,8 7,8 22,5 south 30,6 1026,1 100 - 158.6
07:40 7,8 7,8 16,1 south 25,7 1026,0 100 - 160.5
07:41 7,8 7,8 16,1 south 20,9 1026,1 100 - 162.3
07:42 7,8 7,8 16,1 south 22,5 1026,1 100 - 164.2
07:43 7,8 7,8 19,3 south 25,7 1026,1 100 - 166
07:44 7,8 7,8 19,3 south 29,0 1026,1 100 - 167.8
07:45 7,8 7,8 19,3 south 22,5 1026,1 100 - 169.7
07:46 7,8 7,8 20,9 south 25,7 1026,1 100 - 172.5
07:47 7,8 7,8 19,3 south 25,7 1026,1 100 - 174.2
07:48 7,8 7,8 19,3 south 29,0 1026,1 100 - 176
07:49 7,8 7,8 16,1 south 25,7 1026,2 100 - 177.9
07:50 7,8 7,8 8,0 south 20,9 1026,3 100 - 179.7
07:51 7,8 7,8 4,8 ssw 14,5 1026,3 100 - 181.6
07:52 7,8 7,8 12,9 ssw 24,1 1026,2 100 - 183.4
07:53 7,8 7,8 14,5 ssw 25,7 1026,3 100 - 186.2
07:54 7,8 7,8 11,3 ssw 19,3 1026,2 100 - 188
07:55 7,8 7,8 12,9 ssw 25,7 1026,2 100 - 189.9
07:56 7,8 7,8 8,0 ssw 14,5 1026,2 100 - 191.7
07:57 7,8 7,8 8,0 ssw 20,9 1026,3 100 - 193.5
07:58 7,8 7,8 11,3 ssw 20,9 1026,2 100 - 195.4
07:59 7,8 7,8 16,1 ssw 20,9 1026,3 100 - 198.2
08:00 7,8 7,8 14,5 ssw 20,9 1026,2 100 - 200
08:01 7,8 7,8 16,1 ssw 22,5 1026,3 100 - 201.8
08:02 7,9 7,9 11,3 ssw 22,5 1026,3 100 - 203.6
08:03 7,9 7,9 11,3 ssw 25,7 1026,3 100 - 205.4
08:04 7,9 7,9 9,7 ssw 14,5 1026,2 100 - 208.2
08:05 7,9 7,9 11,3 ssw 16,1 1026,2 100 - 210
08:06 7,9 7,9 9,7 ssw 19,3 1026,3 100 - 211.9
08:07 7,9 7,9 11,3 ssw 17,7 1026,3 100 - 213.7
08:08 7,9 7,9 8,0 ssw 14,5 1026,3 100 - 215.5
08:09 7,9 7,9 11,3 ssw 20,9 1026,4 100 - 217.4
08:10 7,9 7,9 9,7 ssw 17,7 1026,3 100 - 220.1
08:11 7,9 7,9 11,3 ssw 20,9 1026,3 100 - 222
08:12 7,9 7,9 8,0 ssw 16,1 1026,3 100 - 223.8
08:13 7,9 7,9 11,3 ssw 17,7 1026,3 100 - 225.5
08:14 7,9 7,9 11,3 ssw 20,9 1026,3 100 - 227.4
08:15 7,9 7,9 19,3 ssw 25,7 1026,3 100 - 230.3
08:16 7,9 7,9 8,0 ssw 16,1 1026,3 100 - 232.1
08:17 7,9 7,9 9,7 ssw 24,1 1026,4 100 - 233.8
08:18 7,9 7,9 9,7 ssw 16,1 1026,3 100 - 235.7
08:19 7,9 7,9 3,2 ssw 8,0 1026,4 100 - 237.5
08:20 7,9 7,9 4,8 ssw 11,3 1026,4 100 - 239.3
08:21 7,9 7,9 12,9 ssw 22,5 1026,4 100 - 242.1
08:23 7,9 7,9 11,3 ssw 17,7 1026,3 100 - 245.9
08:24 7,9 7,9 4,8 ssw 12,9 1026,4 100 - 247.6
08:25 7,9 7,9 12,9 ssw 17,7 1026,4 100 - 249.5
08:26 7,9 7,9 11,3 ssw 17,7 1026,4 100 - 251.3
08:27 7,9 7,9 11,3 ssw 19,3 1026,5 100 - 254.1
08:28 7,9 7,9 12,9 ssw 19,3 1026,5 100 - 255.9
08:29 7,9 7,9 11,3 ssw 16,1 1026,5 100 - 257.8
08:30 7,9 7,9 9,7 ssw 17,7 1026,5 100 - 259.6
08:31 7,9 7,9 11,3 ssw 17,7 1026,5 100 - 261.4
08:32 7,9 7,9 9,7 sw 16,1 1026,6 100 - 263.3
08:33 7,9 7,9 4,8 sw 14,5 1026,6 100 - 266
08:34 7,9 7,9 8,0 sw 19,3 1026,6 100 - 267.9
08:35 7,9 7,9 4,8 sw 9,7 1026,6 100 - 269.7
08:36 7,9 7,9 16,1 sw 24,1 1026,7 100 - 271.6
08:37 7,9 7,9 8,0 sw 16,1 1026,6 100 - 273.4
08:38 7,9 7,9 9,7 sw 17,7 1026,7 100 - 275.2
08:39 7,9 7,9 12,9 ssw 17,7 1026,6 100 - 278
08:40 7,9 7,9 14,5 ssw 20,9 1026,7 100 - 279.8
08:41 7,9 7,9 16,1 ssw 25,7 1026,6 100 - 281.7
08:42 7,9 7,9 4,8 ssw 17,7 1026,6 100 - 283.5
08:43 7,9 7,9 11,3 ssw 20,9 1026,7 100 - 285.4
08:44 7,9 7,9 9,7 ssw 25,7 1026,6 100 - 287.2
08:45 7,9 7,9 14,5 ssw 25,7 1026,6 100 - 289.1
08:46 7,9 7,9 4,8 ssw 14,5 1026,6 100 - 291.8
08:47 7,9 7,9 14,5 ssw 27,4 1026,6 100 - 293.7
08:48 7,9 7,9 19,3 ssw 24,1 1026,6 100 - 295.5
08:49 7,9 7,9 9,7 ssw 19,3 1026,6 100 - 297.3
08:50 8,0 8,0 8,0 ssw 16,1 1026,5 100 - 299
08:51 8,0 8,0 11,3 ssw 22,5 1026,6 100 - 300.8
08:52 8,0 8,0 9,7 ssw 16,1 1026,7 100 - 302.7
08:53 8,0 8,0 9,7 ssw 24,1 1026,6 100 - 304.5
08:54 8,0 8,0 19,3 ssw 24,1 1026,5 100 - 307.3
08:55 8,0 8,0 22,5 ssw 30,6 1026,5 100 - 309.1
08:56 8,0 8,0 16,1 ssw 22,5 1026,5 100 - 311
08:57 8,0 8,0 14,5 ssw 25,7 1026,5 100 - 312.8
08:58 8,0 8,0 14,5 ssw 22,5 1026,5 100 - 314.6
09:00 8,1 8,1 14,5 ssw 25,7 1026,5 100 - 318.1
09:01 8,1 8,1 12,9 ssw 17,7 1026,5 100 - 320
09:02 8,1 8,1 11,3 ssw 22,5 1026,5 100 - 322.7
09:03 8,1 8,1 20,9 ssw 29,0 1026,5 100 - 324.6
09:04 8,1 8,1 14,5 ssw 19,3 1026,5 100 - 326.2
09:05 8,1 8,1 16,1 ssw 27,4 1026,5 100 - 328
09:06 8,1 8,1 12,9 ssw 19,3 1026,6 100 - 329.9
09:07 8,1 8,1 8,0 ssw 20,9 1026,5 100 - 331.7
09:08 8,1 8,1 16,1 ssw 24,1 1026,5 100 - 333.6
09:09 8,1 8,1 12,9 ssw 25,7 1026,5 100 - 335.4
09:10 8,1 8,1 12,9 ssw 20,9 1026,6 100 - 337.2
09:11 8,1 8,1 12,9 ssw 24,1 1026,5 100 - 339.1
09:12 8,1 8,1 16,1 ssw 29,0 1026,5 100 - 340.9
09:13 8,1 8,1 19,3 ssw 22,5 1026,5 100 - 342.7
09:14 8,1 8,1 14,5 ssw 19,3 1026,6 100 - 344.6
09:15 8,1 8,1 22,5 ssw 29,0 1026,6 100 - 346.4
09:16 8,1 8,1 19,3 sw 24,1 1026,6 100 - 348.3
09:17 8,1 8,1 11,3 ssw 17,7 1026,7 100 - 350.1
09:18 8,1 8,1 12,9 ssw 20,9 1026,6 100 - 351.9
09:19 8,2 8,2 14,5 ssw 20,9 1026,6 100 - 353.6
09:20 8,2 8,2 12,9 ssw 24,1 1026,6 100 - 355.4
09:21 8,2 8,2 12,9 ssw 20,9 1026,6 100 - 357.2
09:22 8,2 8,2 11,3 ssw 17,7 1026,7 100 - 359.1
09:23 8,2 8,2 8,0 ssw 19,3 1026,6 100 - 360.9
09:24 8,2 8,2 14,5 ssw 20,9 1026,6 100 - 362.7
09:25 8,2 8,2 14,5 ssw 24,1 1026,5 100 - 364.6
09:26 8,2 8,2 19,3 ssw 27,4 1026,5 100 - 366.4
09:27 8,2 8,2 16,1 ssw 25,7 1026,6 100 - 368.3
09:28 8,2 8,2 12,9 ssw 17,7 1026,5 100 - 370.1
09:29 8,2 8,2 12,9 ssw 19,3 1026,6 100 - 371.7
09:30 8,2 8,2 12,9 ssw 22,5 1026,5 100 - 373.5
09:31 8,2 8,2 12,9 ssw 19,3 1026,5 100 - 375.4
09:32 8,2 8,2 11,3 ssw 22,5 1026,5 100 - 377.2
09:33 8,3 8,3 12,9 ssw 24,1 1026,5 100 - 378.8
09:34 8,3 8,3 12,9 ssw 30,6 1026,6 100 - 380.6
09:35 8,3 8,3 12,9 ssw 24,1 1026,5 100 - 381.6
09:36 8,3 8,3 12,9 ssw 24,1 1026,6 100 - 383.4
09:37 8,3 8,3 14,5 ssw 24,1 1026,5 100 - 385.2
09:38 8,3 8,3 12,9 ssw 24,1 1026,5 100 - 387.1
09:39 8,3 8,3 12,9 ssw 22,5 1026,5 100 - 388.7
09:40 8,3 8,3 11,3 ssw 22,5 1026,5 100 - 390.5
09:41 8,3 8,3 16,1 ssw 22,5 1026,4 100 - 392.3
09:42 8,3 8,3 14,5 ssw 25,7 1026,5 100 - 394.2
09:43 8,4 8,4 14,5 ssw 20,9 1026,5 100 - 394.8
09:44 8,4 8,4 9,7 ssw 19,3 1026,6 100 - 396.7
09:45 8,4 8,4 19,3 ssw 27,4 1026,5 100 - 398.5
09:46 8,4 8,4 9,7 ssw 19,3 1026,5 100 - 400.3
09:47 8,4 8,4 11,3 ssw 17,7 1026,5 100 - 401.9
09:48 8,4 8,4 12,9 ssw 22,5 1026,5 100 - 403.8
09:49 8,4 8,4 16,1 ssw 25,7 1026,5 100 - 404.7
09:50 8,4 8,4 14,5 ssw 25,7 1026,5 100 - 406.5
09:51 8,4 8,4 8,0 ssw 14,5 1026,5 100 - 408.3
09:52 8,5 8,1 8,0 ssw 14,5 1026,5 97 - 409.9
09:53 8,5 8,1 9,7 ssw 14,5 1026,5 97 - 410.8
09:54 8,5 8,1 12,9 ssw 24,1 1026,6 97 - 412.7
09:55 8,5 8,1 14,5 ssw 22,5 1026,6 97 - 414.5
09:56 8,6 8,1 12,9 ssw 22,5 1026,6 97 - 416.1
09:57 8,6 8,1 11,3 ssw 20,9 1026,5 97 - 417
09:58 8,6 8,1 11,3 ssw 16,1 1026,6 97 - 418.8
09:59 8,6 8,1 12,9 ssw 29,0 1026,5 97 - 420.6
10:00 8,6 8,1 11,3 ssw 19,3 1026,5 97 - 422.5
10:01 8,6 8,1 19,3 ssw 29,0 1026,5 97 - 424.3
10:02 8,6 8,2 12,9 ssw 20,9 1026,4 97 - 425
10:03 8,6 8,2 12,9 ssw 22,5 1026,5 97 - 426.8
10:04 8,6 8,2 19,3 ssw 29,0 1026,5 97 - 428.6
10:05 8,6 8,2 9,7 ssw 22,5 1026,5 97 - 429.5
10:06 8,7 8,2 12,9 ssw 19,3 1026,5 97 - 431.1
10:07 8,7 8,2 14,5 ssw 22,5 1026,6 97 - 432.9
10:08 8,7 8,2 9,7 ssw 20,9 1026,6 97 - 433.8
10:09 8,7 8,2 12,9 ssw 24,1 1026,6 97 - 435.7
10:10 8,7 8,2 12,9 ssw 24,1 1026,5 97 - 436.6
10:11 8,7 8,2 16,1 ssw 29,0 1026,6 97 - 438.4
10:12 8,7 8,3 12,9 ssw 20,9 1026,5 97 - 440
10:13 8,7 8,3 12,9 ssw 24,1 1026,5 97 - 440.9
10:14 8,7 8,3 12,9 sw 20,9 1026,5 97 - 442.7
10:15 8,8 8,3 8,0 sw 19,3 1026,6 97 - 443.3
10:16 8,8 8,3 20,9 sw 30,6 1026,5 97 - 445.2
10:17 8,8 8,3 19,3 sw 25,7 1026,5 97 - 446.1
10:18 8,8 8,3 20,9 sw 27,4 1026,5 97 - 447.9
10:19 8,8 8,3 16,1 sw 29,0 1026,5 97 - 448.8
10:20 8,8 8,3 9,7 sw 17,7 1026,6 97 - 450.6
10:21 8,8 8,4 14,5 sw 29,0 1026,5 97 - 451.3
10:22 8,8 8,4 4,8 sw 9,7 1026,4 97 - 453.1
10:23 8,8 8,4 9,7 sw 17,7 1026,5 97 - 454
10:24 8,9 8,4 19,3 sw 24,1 1026,5 97 - 455.6
10:25 8,9 8,4 11,3 sw 16,1 1026,5 97 - 456.5
10:26 8,9 8,5 4,8 sw 11,3 1026,5 97 - 458
10:27 8,9 8,5 8,0 sw 19,3 1026,4 97 - 458.9
10:28 9,0 8,6 16,1 ssw 27,4 1026,5 97 - 460.5
10:29 9,0 8,6 12,9 sw 19,3 1026,5 97 - 461.4
10:30 9,1 8,6 9,7 sw 17,7 1026,4 97 - 462
10:31 9,1 8,6 4,8 ssw 16,1 1026,5 97 - 463.8
10:32 9,1 8,7 11,3 sw 19,3 1026,5 97 - 464.4
10:33 9,2 8,7 14,5 ssw 24,1 1026,5 97 - 466
10:34 9,2 8,7 19,3 ssw 38,6 1026,4 97 - 466.9
10:35 9,2 8,7 14,5 ssw 30,6 1026,4 97 - 467.8
10:36 9,2 8,7 20,9 ssw 27,4 1026,4 97 - 469.6
10:37 9,2 8,6 16,1 ssw 30,6 1026,5 96 - 470.5
10:38 9,2 8,6 19,3 ssw 29,0 1026,5 96 - 471.4
10:39 9,2 8,6 16,1 ssw 25,7 1026,5 96 - 473
10:40 9,2 8,6 20,9 ssw 32,2 1026,4 96 - 473.9
10:41 9,2 8,6 16,1 ssw 32,2 1026,4 96 - 474.8
10:42 9,2 8,6 16,1 ssw 29,0 1026,5 96 - 475.7
10:43 9,2 8,6 9,7 ssw 17,7 1026,5 96 - 477.5
10:44 9,2 8,6 14,5 ssw 22,5 1026,5 96 - 478.4
10:45 9,2 8,6 14,5 ssw 24,1 1026,5 96 - 479.3
10:46 9,2 8,6 16,1 ssw 29,0 1026,5 96 - 480.2
10:47 9,2 8,6 11,3 sw 19,3 1026,5 96 - 482
10:48 9,2 8,6 20,9 ssw 30,6 1026,5 96 - 482.9
10:49 9,2 8,6 24,1 ssw 32,2 1026,5 96 - 483.8
10:50 9,2 8,6 19,3 sw 24,1 1026,6 96 - 484.8
10:51 9,3 8,5 11,3 ssw 22,5 1026,6 95 - 485.4
10:52 9,3 8,5 11,3 ssw 20,9 1026,5 95 - 486.3
10:53 9,3 8,5 14,5 ssw 22,5 1026,5 95 - 488.1
10:54 9,3 8,5 4,8 ssw 11,3 1026,5 95 - 489
10:55 9,3 8,5 16,1 ssw 25,7 1026,5 95 - 489.9
10:56 9,3 8,5 12,9 ssw 22,5 1026,5 95 - 490.8
10:57 9,3 8,5 9,7 ssw 22,5 1026,5 95 - 491.7
10:58 9,3 8,5 16,1 ssw 20,9 1026,4 95 - 492.6
10:59 9,3 8,5 19,3 ssw 25,7 1026,4 95 - 493.5
11:00 9,3 8,6 12,9 ssw 24,1 1026,4 95 - 494.1
11:01 9,3 8,6 12,9 ssw 19,3 1026,4 95 - 495
11:02 9,3 8,6 12,9 ssw 29,0 1026,5 95 - 495.9
11:03 9,4 8,6 11,3 ssw 22,5 1026,5 95 - 497.5
11:04 9,4 8,6 19,3 ssw 29,0 1026,5 95 - 497.5
11:05 9,4 8,7 19,3 ssw 29,0 1026,4 95 - 498.1
11:06 9,4 8,7 14,5 ssw 25,7 1026,4 95 - 499
11:07 9,4 8,7 19,3 ssw 27,4 1026,5 95 - 499.9
11:08 9,4 8,7 9,7 sw 19,3 1026,5 95 - 500.8
11:09 9,5 8,7 16,1 sw 24,1 1026,4 95 - 501.4
11:10 9,5 8,7 14,5 sw 24,1 1026,4 95 - 502.3
11:11 9,5 8,7 19,3 sw 24,1 1026,4 95 - 503.2
11:12 9,6 8,8 14,5 sw 20,9 1026,4 95 - 503.8
11:13 9,6 8,8 11,3 sw 17,7 1026,4 95 - 504.7
11:14 9,6 8,8 14,5 sw 24,1 1026,4 95 - 505.6
11:15 9,6 8,8 14,5 sw 29,0 1026,5 95 - 506.2
11:16 9,6 8,8 4,8 sw 12,9 1026,4 95 - 506.2
11:17 9,7 8,9 12,9 sw 22,5 1026,5 95 - 506.8
11:18 9,7 8,7 16,1 ssw 27,4 1026,5 94 - 507.7
11:19 9,7 8,7 20,9 ssw 30,6 1026,4 94 - 508.6
11:20 9,7 8,7 16,1 sw 25,7 1026,5 94 - 509.5
11:21 9,7 8,7 12,9 ssw 19,3 1026,5 94 - 509.5
11:22 9,7 8,7 11,3 ssw 17,7 1026,5 94 - 510.4
11:23 9,7 8,7 11,3 ssw 17,7 1026,5 94 - 511.3
11:24 9,7 8,7 4,8 ssw 16,1 1026,5 94 - 512.2
11:25 9,7 8,7 4,8 ssw 12,9 1026,4 94 - 512.2
11:26 9,7 8,8 11,3 ssw 16,1 1026,4 94 - 512.8
11:27 9,7 8,8 14,5 ssw 24,1 1026,4 94 - 513.7
11:28 9,7 8,8 19,3 ssw 29,0 1026,4 94 - 513.7
11:29 9,7 8,8 22,5 sw 29,0 1026,4 94 - 514.6
11:30 9,7 8,8 14,5 ssw 22,5 1026,5 94 - 515.5
11:31 9,7 8,8 16,1 ssw 29,0 1026,6 94 - 515.5
11:32 9,7 8,8 12,9 ssw 24,1 1026,5 94 - 516.4
11:33 9,7 8,8 11,3 ssw 22,5 1026,5 94 - 516.4
11:34 9,7 8,7 19,3 ssw 35,4 1026,6 93 - 517.3
11:35 9,7 8,7 19,3 ssw 22,5 1026,6 93 - 518.2
11:36 9,7 8,7 19,3 ssw 33,8 1026,6 93 - 518.2
11:37 9,7 8,7 19,3 sw 29,0 1026,5 93 - 519.1
11:38 9,7 8,6 14,5 ssw 27,4 1026,6 93 - 519.4
11:39 9,7 8,6 19,3 ssw 25,7 1026,6 93 - 520.3
11:40 9,7 8,6 14,5 sw 24,1 1026,6 93 - 520.3
11:41 9,7 8,6 14,5 sw 22,5 1026,5 93 - 521.2
11:42 9,7 8,6 19,3 sw 25,7 1026,5 93 - 521.2
11:43 9,7 8,6 11,3 sw 20,9 1026,5 93 - 522.1
11:44 9,7 8,6 14,5 sw 20,9 1026,6 93 - 522.1
11:45 9,7 8,6 12,9 sw 17,7 1026,6 93 - 523
11:46 9,6 8,6 9,7 sw 25,7 1026,6 93 - 523.4
11:47 9,6 8,6 19,3 sw 30,6 1026,6 93 - 523.4
11:48 9,6 8,5 14,5 sw 22,5 1026,6 93 - 524.6
11:49 9,6 8,6 12,9 sw 24,1 1026,6 93 - 524.3
11:50 9,6 8,5 19,3 sw 22,5 1026,5 93 - 524.6
11:51 9,6 8,5 14,5 sw 20,9 1026,5 93 - 525.5
11:52 9,6 8,5 11,3 sw 20,9 1026,6 93 - 525.5
11:53 9,6 8,5 19,3 sw 22,5 1026,5 93 - 525.5
11:54 9,6 8,5 9,7 sw 16,1 1026,6 93 - 526.4
11:55 9,6 8,5 9,7 sw 16,1 1026,6 93 - 526.4
11:56 9,6 8,5 12,9 sw 24,1 1026,5 93 - 526.4
11:57 9,6 8,5 14,5 sw 24,1 1026,6 93 - 527.3
11:58 9,6 8,5 14,5 sw 20,9 1026,5 93 - 527.3
11:59 9,6 8,5 14,5 sw 20,9 1026,6 93 - 527.3
12:00 9,6 8,6 8,0 sw 14,5 1026,6 93 - 527.9
12:01 9,6 8,5 14,5 sw 25,7 1026,6 93 - 528.2
12:02 9,6 8,5 16,1 ssw 25,7 1026,6 93 - 528.2
12:03 9,6 8,5 14,5 ssw 22,5 1026,6 93 - 528.2
12:04 9,6 8,5 11,3 ssw 17,7 1026,5 93 - 528.2
12:05 9,6 8,7 19,3 ssw 30,6 1026,5 94 - 527.9
12:06 9,6 8,7 22,5 ssw 30,6 1026,6 94 - 528.8
12:07 9,6 8,6 20,9 ssw 30,6 1026,6 93 - 528.8
12:08 9,6 8,6 9,7 ssw 17,7 1026,6 93 - 528.8
12:09 9,6 8,6 16,1 ssw 27,4 1026,7 93 - 528.8
12:10 9,6 8,5 12,9 sw 17,7 1026,7 93 - 529.1
12:11 9,6 8,6 8,0 ssw 14,5 1026,6 93 - 528.8
12:12 9,6 8,6 8,0 sw 16,1 1026,7 93 - 528.8
12:13 9,6 8,7 8,0 sw 14,5 1026,7 94 - 528.8
12:14 9,6 8,7 11,3 sw 27,4 1026,7 94 - 528.8
12:15 9,6 8,6 16,1 sw 24,1 1026,7 93 - 528.8
12:16 9,6 8,6 14,5 sw 29,0 1026,6 93 - 528.8
12:17 9,6 8,6 16,1 sw 22,5 1026,6 93 - 528.8
12:18 9,6 8,6 12,9 sw 25,7 1026,6 93 - 528.8
12:19 9,6 8,6 19,3 sw 24,1 1026,5 93 - 528.8
12:20 9,6 8,6 16,1 ssw 22,5 1026,6 93 - 528.8
12:21 9,6 8,6 12,9 ssw 19,3 1026,5 93 - 528.8
12:22 9,6 8,6 14,5 ssw 33,8 1026,5 93 - 528.8
12:23 9,7 8,6 12,9 ssw 19,3 1026,5 93 - 527.5
12:24 9,7 8,7 11,3 ssw 16,1 1026,5 94 - 527.5
12:25 9,7 8,7 19,3 ssw 22,5 1026,6 94 - 527.5
12:26 9,7 8,8 16,1 ssw 25,7 1026,5 94 - 527.2
12:27 9,7 8,8 9,7 ssw 25,7 1026,6 94 - 527.2
12:28 9,7 8,7 19,3 ssw 25,7 1026,5 93 - 527.2
12:29 9,7 8,7 12,9 ssw 19,3 1026,6 93 - 526.3
12:30 9,8 8,7 14,5 ssw 29,0 1026,6 93 - 526
12:31 9,8 8,7 16,1 sw 24,1 1026,6 93 - 526
12:32 9,8 8,7 14,5 sw 30,6 1026,6 93 - 526
12:33 9,8 8,7 4,8 sw 12,9 1026,6 93 - 525.1
12:34 9,8 8,7 4,8 sw 9,7 1026,7 93 - 525.1
12:35 9,8 8,8 16,1 sw 24,1 1026,7 93 - 524.8
12:36 9,8 8,8 9,7 sw 27,4 1026,7 93 - 524.8
12:37 9,8 8,8 12,9 sw 22,5 1026,7 93 - 523.9
12:38 9,8 8,8 9,7 sw 20,9 1026,7 93 - 523.9
12:39 9,8 8,8 14,5 sw 20,9 1026,6 93 - 523
12:40 9,8 8,8 4,8 sw 16,1 1026,6 93 - 523
12:41 9,8 8,8 11,3 sw 16,1 1026,6 93 - 523
12:42 9,8 8,8 12,9 sw 17,7 1026,6 93 - 522.1
12:43 9,8 8,8 4,8 sw 17,7 1026,7 93 - 522.1
12:44 9,8 8,8 16,1 sw 19,3 1026,7 93 - 521.2
12:45 9,8 8,8 12,9 ssw 19,3 1026,7 93 - 521.2
12:46 9,9 8,8 11,3 ssw 22,5 1026,8 93 - 520.8
12:47 9,9 8,8 16,1 ssw 25,7 1026,7 93 - 519.9
12:48 9,8 8,8 12,9 ssw 22,5 1026,7 93 - 520.3
12:49 9,8 8,8 19,3 sw 25,7 1026,7 93 - 519.4
12:50 9,8 8,8 16,1 sw 24,1 1026,7 93 - 519.4
12:51 9,8 8,8 22,5 sw 35,4 1026,7 93 - 518.5
12:52 9,8 8,8 16,1 sw 22,5 1026,7 93 - 518.5
12:53 9,8 8,7 20,9 sw 25,7 1026,7 93 - 517.9
12:54 9,8 8,7 14,5 sw 25,7 1026,7 93 - 517
12:55 9,8 8,7 16,1 sw 22,5 1026,7 93 - 517
12:56 9,8 8,7 9,7 sw 19,3 1026,7 93 - 516.1
12:57 9,8 8,7 8,0 sw 17,7 1026,7 93 - 516.1
12:58 9,8 8,7 19,3 sw 24,1 1026,7 93 - 515.2
12:59 9,8 8,7 14,5 sw 24,1 1026,7 93 - 514.3
13:00 9,8 8,7 19,3 sw 29,0 1026,7 93 - 514.3
13:01 9,7 8,7 19,3 sw 30,6 1026,7 93 - 513.7
13:02 9,7 8,7 19,3 sw 27,4 1026,8 93 - 513.7
13:03 9,7 8,7 9,7 sw 16,1 1026,8 93 - 512.8
13:04 9,7 8,7 14,5 sw 20,9 1026,8 93 - 511.9
13:05 9,7 8,7 9,7 sw 17,7 1026,8 93 - 511.9
13:06 9,7 8,7 16,1 sw 29,0 1026,9 93 - 511
13:07 9,7 8,6 19,3 sw 27,4 1026,9 93 - 510.4
13:08 9,7 8,6 9,7 sw 16,1 1026,9 93 - 509.5
13:09 9,7 8,6 19,3 sw 27,4 1026,9 93 - 508.6
13:10 9,7 8,6 16,1 sw 29,0 1026,9 93 - 508.6
13:11 9,7 8,6 16,1 sw 30,6 1026,9 93 - 507.7
13:12 9,7 8,6 19,3 sw 30,6 1026,9 93 - 506.8
13:13 9,7 8,6 12,9 sw 19,3 1026,9 93 - 505.9
13:14 9,7 8,6 20,9 sw 30,6 1026,9 93 - 505
13:15 9,7 8,6 12,9 sw 25,7 1026,9 93 - 505
13:16 9,6 8,6 19,3 sw 30,6 1026,9 93 - 504.4
13:17 9,6 8,6 16,1 sw 22,5 1026,9 93 - 503.5
13:18 9,6 8,7 19,3 sw 27,4 1026,9 94 - 502.6
13:19 9,6 8,7 24,1 sw 35,4 1026,9 94 - 501.7
13:20 9,6 8,7 20,9 sw 32,2 1026,9 94 - 500.8
13:21 9,6 8,7 12,9 sw 20,9 1026,9 94 - 499.9
13:22 9,6 8,7 22,5 sw 32,2 1026,9 94 - 498.9
13:23 9,6 8,7 19,3 sw 25,7 1026,9 94 - 498
13:24 9,6 8,7 20,9 sw 25,7 1026,8 94 - 497.1
13:25 9,6 8,7 14,5 sw 24,1 1026,8 94 - 496.2
13:26 9,7 8,7 19,3 sw 29,0 1026,7 94 - 495
13:27 9,7 8,7 19,3 sw 29,0 1026,7 94 - 494.1
13:28 9,7 8,7 16,1 sw 24,1 1026,6 94 - 493.2
13:29 9,7 8,7 19,3 sw 25,7 1026,6 94 - 492.3
13:30 9,7 8,7 19,3 sw 29,0 1026,6 94 - 491.4
13:31 9,7 8,8 12,9 sw 24,1 1026,5 94 - 490.2
13:32 9,7 8,8 19,3 sw 25,7 1026,6 94 - 489.3
13:33 9,8 8,8 19,3 sw 27,4 1026,5 94 - 488.1
13:34 9,8 8,8 11,3 sw 19,3 1026,5 94 - 487.2
13:35 9,8 8,8 4,8 sw 9,7 1026,5 94 - 486.3
13:36 9,8 8,8 9,7 sw 17,7 1026,5 94 - 484.5
13:37 9,8 8,9 12,9 sw 24,1 1026,5 94 - 483.3
13:38 9,8 8,9 12,9 sw 25,7 1026,4 94 - 482.4
13:39 9,8 8,9 8,0 sw 11,3 1026,5 94 - 481.5
13:40 9,9 8,9 9,7 sw 20,9 1026,4 94 - 480.3
13:41 9,9 8,8 19,3 sw 24,1 1026,4 93 - 479.4
13:42 9,9 8,9 16,1 ssw 25,7 1026,4 93 - 477.3
13:43 9,9 9,0 11,3 sw 20,9 1026,5 94 - 476.4
13:44 9,9 9,0 11,3 ssw 22,5 1026,4 94 - 475.5
13:45 10,0 9,1 16,1 sw 27,4 1026,5 94 - 474.3
13:46 10,0 9,1 19,3 ssw 20,9 1026,5 94 - 472.5
13:47 10,1 9,0 14,5 ssw 22,5 1026,5 93 - 471.3
13:48 10,1 9,0 14,5 ssw 24,1 1026,4 93 - 470.4
13:49 10,1 9,0 14,5 ssw 22,5 1026,5 93 - 469.5
13:50 10,1 9,1 12,9 ssw 20,9 1026,4 93 - 467.4
13:51 10,1 9,1 16,1 ssw 27,4 1026,3 93 - 466.5
13:52 10,2 9,1 14,5 ssw 22,5 1026,3 93 - 465.3
13:53 10,2 9,1 9,7 ssw 17,7 1026,3 93 - 463.5
13:54 10,2 9,1 16,1 ssw 27,4 1026,3 93 - 462.6
13:55 10,2 9,2 9,7 ssw 30,6 1026,3 93 - 461.5
13:56 10,2 9,2 12,9 ssw 24,1 1026,3 93 - 459.7
13:57 10,3 9,2 11,3 sw 19,3 1026,3 93 - 458.5
13:58 10,3 9,2 11,3 sw 16,1 1026,2 93 - 456.7
16:49 9,9 8,7 24,1 wsw 21,2 1026,2 92 - 139
16:54 9,9 8,8 16,1 sw 27,4 1026,2 93 - 146.9
16:59 9,8 8,8 29,6 wsw 19,3 1026,3 93 - 76
17:04 9,8 8,8 24,1 ssw 13,5 1026,3 93 - 86
17:09 9,8 8,8 25,9 wsw 10,9 1026,2 93 - 42
17:14 9,8 8,8 18,5 south 9,8 1026,2 93 - 39
17:19 9,7 8,7 24,1 sw 12,1 1026,2 93 - 58
17:24 9,7 8,7 24,1 sw 11,9 1026,2 93 - 74
17:29 9,8 8,7 31,5 south 15,9 1026,1 93 - 53
17:34 9,7 8,7 20,9 south 13,0 1026,1 93 - 30
17:39 9,7 8,6 18,5 sw 12,1 1026,2 93 - 30
17:44 9,6 8,6 27,8 ssw 14,5 1026,1 93 - 44
17:49 9,6 8,5 25,9 sw 7,1 1026,2 93 0,30 37
17:54 9,6 8,5 19,3 sw 10,1 1026,4 93 0,30 26
17:59 9,5 8,4 19,3 wsw 10,1 1026,4 93 0,30 21
18:04 9,4 8,4 24,1 ssw 12,4 1026,4 93 0,30 18
18:09 9,4 8,4 18,5 sw 15,3 1026,5 94 0,30 14
18:14 9,3 8,4 22,2 south 13,7 1026,4 94 0,30 9
18:19 9,3 8,4 18,5 ssw 11,3 1026,4 94 0,30 7
18:24 9,3 8,4 18,5 sw 6,6 1026,6 94 0,30 5
18:29 9,3 8,4 18,5 sw 12,9 1026,5 94 0,30 -

Download your copy of this data-set  here

Our weather-data as stored at Weather Underground. script developed by Jim McMurry. adapted for the template by Leuven-Template.eu

you find our weather info also at:

European Weather Network

Weather Underground

AWEKAS

WeatherlinkIP

Citizen Weather Observer Program (CWOP)

equipment we use:

weather-station
Davis VP2+

weather-program
Weather Display

weather-server
Dell E6400

provider
Webhosting.dk

Davis VP2+

Weather Display

Dell E6400

Webhosting.dk